<?xml version="1.0" encoding="UTF-8" standalone="no" ?>
<gpx xmlns="http://www.topografix.com/GPX/1/1" xmlns:xsi="http://www.w3.org/2001/XMLSchema-instance" xsi:schemaLocation="http://www.topografix.com/GPX/1/1 http://www.topografix.com/GPX/1/1/gpx.xsd" version="1.1" creator="VisuGPX - https://www.visugpx.com">
  <metadata>
    <name>Sortie_cyclo_10_06_2013 (Lannion- 35 kms)</name>
    <desc><![CDATA[Petit circuit de 1h30 environ]]></desc>
  </metadata>
  <trk>
    <name><![CDATA[10-JUIN-13 19:23:46]]></name>
    <trkseg>
      <trkpt lat="48.74665" lon="-3.45497">
        <ele>76.08</ele>
        <time>2013-06-10T15:43:42Z</time>
      </trkpt>
      <trkpt lat="48.74656" lon="-3.45487">
        <ele>77.04</ele>
        <time>2013-06-10T15:43:57Z</time>
      </trkpt>
      <trkpt lat="48.74639" lon="-3.45477">
        <ele>76.08</ele>
        <time>2013-06-10T15:44:02Z</time>
      </trkpt>
      <trkpt lat="48.74629" lon="-3.45472">
        <ele>75.6</ele>
        <time>2013-06-10T15:44:04Z</time>
      </trkpt>
      <trkpt lat="48.74623" lon="-3.45474">
        <ele>75.12</ele>
        <time>2013-06-10T15:44:05Z</time>
      </trkpt>
      <trkpt lat="48.74618" lon="-3.4548">
        <ele>74.64</ele>
        <time>2013-06-10T15:44:06Z</time>
      </trkpt>
      <trkpt lat="48.74614" lon="-3.45488">
        <ele>74.64</ele>
        <time>2013-06-10T15:44:07Z</time>
      </trkpt>
      <trkpt lat="48.74611" lon="-3.45495">
        <ele>73.2</ele>
        <time>2013-06-10T15:44:08Z</time>
      </trkpt>
      <trkpt lat="48.74603" lon="-3.45511">
        <ele>70.79</ele>
        <time>2013-06-10T15:44:14Z</time>
      </trkpt>
      <trkpt lat="48.74601" lon="-3.45515">
        <ele>70.79</ele>
        <time>2013-06-10T15:44:23Z</time>
      </trkpt>
      <trkpt lat="48.746" lon="-3.45516">
        <ele>71.27</ele>
        <time>2013-06-10T15:44:24Z</time>
      </trkpt>
      <trkpt lat="48.74597" lon="-3.45516">
        <ele>71.27</ele>
        <time>2013-06-10T15:44:25Z</time>
      </trkpt>
      <trkpt lat="48.74594" lon="-3.45514">
        <ele>70.79</ele>
        <time>2013-06-10T15:44:26Z</time>
      </trkpt>
      <trkpt lat="48.74591" lon="-3.45511">
        <ele>70.79</ele>
        <time>2013-06-10T15:44:27Z</time>
      </trkpt>
      <trkpt lat="48.7456" lon="-3.45472">
        <ele>69.35</ele>
        <time>2013-06-10T15:44:33Z</time>
      </trkpt>
      <trkpt lat="48.74533" lon="-3.45419">
        <ele>65.99</ele>
        <time>2013-06-10T15:44:38Z</time>
      </trkpt>
      <trkpt lat="48.74521" lon="-3.45396">
        <ele>65.51</ele>
        <time>2013-06-10T15:44:40Z</time>
      </trkpt>
      <trkpt lat="48.74514" lon="-3.45387">
        <ele>66.47</ele>
        <time>2013-06-10T15:44:41Z</time>
      </trkpt>
      <trkpt lat="48.74508" lon="-3.45379">
        <ele>66.47</ele>
        <time>2013-06-10T15:44:42Z</time>
      </trkpt>
      <trkpt lat="48.74478" lon="-3.45342">
        <ele>69.83</ele>
        <time>2013-06-10T15:44:49Z</time>
      </trkpt>
      <trkpt lat="48.74475" lon="-3.45338">
        <ele>70.31</ele>
        <time>2013-06-10T15:44:50Z</time>
      </trkpt>
      <trkpt lat="48.74466" lon="-3.45326">
        <ele>71.27</ele>
        <time>2013-06-10T15:44:53Z</time>
      </trkpt>
      <trkpt lat="48.74456" lon="-3.45314">
        <ele>72.72</ele>
        <time>2013-06-10T15:44:56Z</time>
      </trkpt>
      <trkpt lat="48.74454" lon="-3.45309">
        <ele>72.72</ele>
        <time>2013-06-10T15:44:57Z</time>
      </trkpt>
      <trkpt lat="48.74451" lon="-3.45304">
        <ele>73.2</ele>
        <time>2013-06-10T15:44:58Z</time>
      </trkpt>
      <trkpt lat="48.74448" lon="-3.453">
        <ele>73.2</ele>
        <time>2013-06-10T15:44:59Z</time>
      </trkpt>
      <trkpt lat="48.74445" lon="-3.45296">
        <ele>73.68</ele>
        <time>2013-06-10T15:45:00Z</time>
      </trkpt>
      <trkpt lat="48.74409" lon="-3.45251">
        <ele>76.08</ele>
        <time>2013-06-10T15:45:11Z</time>
      </trkpt>
      <trkpt lat="48.74406" lon="-3.45246">
        <ele>76.08</ele>
        <time>2013-06-10T15:45:12Z</time>
      </trkpt>
      <trkpt lat="48.74405" lon="-3.4524">
        <ele>76.56</ele>
        <time>2013-06-10T15:45:13Z</time>
      </trkpt>
      <trkpt lat="48.74405" lon="-3.45234">
        <ele>76.56</ele>
        <time>2013-06-10T15:45:14Z</time>
      </trkpt>
      <trkpt lat="48.74406" lon="-3.45228">
        <ele>77.04</ele>
        <time>2013-06-10T15:45:15Z</time>
      </trkpt>
      <trkpt lat="48.74408" lon="-3.45222">
        <ele>77.04</ele>
        <time>2013-06-10T15:45:16Z</time>
      </trkpt>
      <trkpt lat="48.7441" lon="-3.45216">
        <ele>77.04</ele>
        <time>2013-06-10T15:45:17Z</time>
      </trkpt>
      <trkpt lat="48.74412" lon="-3.45211">
        <ele>77.52</ele>
        <time>2013-06-10T15:45:18Z</time>
      </trkpt>
      <trkpt lat="48.74415" lon="-3.45206">
        <ele>77.52</ele>
        <time>2013-06-10T15:45:19Z</time>
      </trkpt>
      <trkpt lat="48.74419" lon="-3.45202">
        <ele>77.52</ele>
        <time>2013-06-10T15:45:20Z</time>
      </trkpt>
      <trkpt lat="48.74423" lon="-3.45199">
        <ele>77.52</ele>
        <time>2013-06-10T15:45:21Z</time>
      </trkpt>
      <trkpt lat="48.74427" lon="-3.45196">
        <ele>77.52</ele>
        <time>2013-06-10T15:45:22Z</time>
      </trkpt>
      <trkpt lat="48.74514" lon="-3.45147">
        <ele>78.97</ele>
        <time>2013-06-10T15:45:40Z</time>
      </trkpt>
      <trkpt lat="48.74612" lon="-3.45088">
        <ele>80.89</ele>
        <time>2013-06-10T15:46:01Z</time>
      </trkpt>
      <trkpt lat="48.74658" lon="-3.45055">
        <ele>83.77</ele>
        <time>2013-06-10T15:46:13Z</time>
      </trkpt>
      <trkpt lat="48.74669" lon="-3.45046">
        <ele>84.73</ele>
        <time>2013-06-10T15:46:16Z</time>
      </trkpt>
      <trkpt lat="48.74682" lon="-3.45032">
        <ele>85.69</ele>
        <time>2013-06-10T15:46:20Z</time>
      </trkpt>
      <trkpt lat="48.74692" lon="-3.45021">
        <ele>86.66</ele>
        <time>2013-06-10T15:46:23Z</time>
      </trkpt>
      <trkpt lat="48.74703" lon="-3.45012">
        <ele>87.14</ele>
        <time>2013-06-10T15:46:26Z</time>
      </trkpt>
      <trkpt lat="48.74745" lon="-3.44965">
        <ele>90.02</ele>
        <time>2013-06-10T15:46:40Z</time>
      </trkpt>
      <trkpt lat="48.74778" lon="-3.44915">
        <ele>92.9</ele>
        <time>2013-06-10T15:46:54Z</time>
      </trkpt>
      <trkpt lat="48.74788" lon="-3.44898">
        <ele>92.9</ele>
        <time>2013-06-10T15:46:59Z</time>
      </trkpt>
      <trkpt lat="48.7479" lon="-3.44901">
        <ele>93.39</ele>
        <time>2013-06-10T15:47:00Z</time>
      </trkpt>
      <trkpt lat="48.7479" lon="-3.44906">
        <ele>92.9</ele>
        <time>2013-06-10T15:47:01Z</time>
      </trkpt>
      <trkpt lat="48.74789" lon="-3.4491">
        <ele>92.9</ele>
        <time>2013-06-10T15:47:02Z</time>
      </trkpt>
      <trkpt lat="48.74786" lon="-3.44914">
        <ele>92.9</ele>
        <time>2013-06-10T15:47:03Z</time>
      </trkpt>
      <trkpt lat="48.74783" lon="-3.44918">
        <ele>92.9</ele>
        <time>2013-06-10T15:47:04Z</time>
      </trkpt>
      <trkpt lat="48.7478" lon="-3.44923">
        <ele>92.9</ele>
        <time>2013-06-10T15:47:05Z</time>
      </trkpt>
      <trkpt lat="48.74733" lon="-3.44989">
        <ele>90.02</ele>
        <time>2013-06-10T15:47:15Z</time>
      </trkpt>
      <trkpt lat="48.74716" lon="-3.45008">
        <ele>87.62</ele>
        <time>2013-06-10T15:47:18Z</time>
      </trkpt>
      <trkpt lat="48.74707" lon="-3.45016">
        <ele>87.14</ele>
        <time>2013-06-10T15:47:20Z</time>
      </trkpt>
      <trkpt lat="48.74702" lon="-3.45019">
        <ele>86.66</ele>
        <time>2013-06-10T15:47:21Z</time>
      </trkpt>
      <trkpt lat="48.74697" lon="-3.45024">
        <ele>86.66</ele>
        <time>2013-06-10T15:47:22Z</time>
      </trkpt>
      <trkpt lat="48.74693" lon="-3.45029">
        <ele>86.18</ele>
        <time>2013-06-10T15:47:23Z</time>
      </trkpt>
      <trkpt lat="48.74688" lon="-3.45035">
        <ele>86.18</ele>
        <time>2013-06-10T15:47:24Z</time>
      </trkpt>
      <trkpt lat="48.74633" lon="-3.45082">
        <ele>82.81</ele>
        <time>2013-06-10T15:47:32Z</time>
      </trkpt>
      <trkpt lat="48.74624" lon="-3.45087">
        <ele>82.81</ele>
        <time>2013-06-10T15:47:33Z</time>
      </trkpt>
      <trkpt lat="48.74562" lon="-3.45125">
        <ele>79.93</ele>
        <time>2013-06-10T15:47:40Z</time>
      </trkpt>
      <trkpt lat="48.74449" lon="-3.45203">
        <ele>78</ele>
        <time>2013-06-10T15:47:55Z</time>
      </trkpt>
      <trkpt lat="48.74424" lon="-3.45221">
        <ele>77.52</ele>
        <time>2013-06-10T15:47:59Z</time>
      </trkpt>
      <trkpt lat="48.7442" lon="-3.45226">
        <ele>77.04</ele>
        <time>2013-06-10T15:48:00Z</time>
      </trkpt>
      <trkpt lat="48.74417" lon="-3.4523">
        <ele>76.56</ele>
        <time>2013-06-10T15:48:01Z</time>
      </trkpt>
      <trkpt lat="48.74412" lon="-3.45238">
        <ele>76.08</ele>
        <time>2013-06-10T15:48:05Z</time>
      </trkpt>
      <trkpt lat="48.74412" lon="-3.45242">
        <ele>76.08</ele>
        <time>2013-06-10T15:48:06Z</time>
      </trkpt>
      <trkpt lat="48.74413" lon="-3.45246">
        <ele>76.08</ele>
        <time>2013-06-10T15:48:07Z</time>
      </trkpt>
      <trkpt lat="48.74415" lon="-3.4525">
        <ele>76.56</ele>
        <time>2013-06-10T15:48:08Z</time>
      </trkpt>
      <trkpt lat="48.74418" lon="-3.45254">
        <ele>76.56</ele>
        <time>2013-06-10T15:48:09Z</time>
      </trkpt>
      <trkpt lat="48.74466" lon="-3.45313">
        <ele>73.68</ele>
        <time>2013-06-10T15:48:18Z</time>
      </trkpt>
      <trkpt lat="48.74501" lon="-3.45359">
        <ele>70.31</ele>
        <time>2013-06-10T15:48:23Z</time>
      </trkpt>
      <trkpt lat="48.74534" lon="-3.45406">
        <ele>67.43</ele>
        <time>2013-06-10T15:48:27Z</time>
      </trkpt>
      <trkpt lat="48.74549" lon="-3.45431">
        <ele>67.43</ele>
        <time>2013-06-10T15:48:29Z</time>
      </trkpt>
      <trkpt lat="48.74577" lon="-3.45485">
        <ele>68.87</ele>
        <time>2013-06-10T15:48:35Z</time>
      </trkpt>
      <trkpt lat="48.74595" lon="-3.45507">
        <ele>70.79</ele>
        <time>2013-06-10T15:48:40Z</time>
      </trkpt>
      <trkpt lat="48.746" lon="-3.45507">
        <ele>70.79</ele>
        <time>2013-06-10T15:48:41Z</time>
      </trkpt>
      <trkpt lat="48.74604" lon="-3.45504">
        <ele>71.27</ele>
        <time>2013-06-10T15:48:42Z</time>
      </trkpt>
      <trkpt lat="48.74607" lon="-3.455">
        <ele>71.27</ele>
        <time>2013-06-10T15:48:43Z</time>
      </trkpt>
      <trkpt lat="48.74609" lon="-3.45495">
        <ele>71.76</ele>
        <time>2013-06-10T15:48:44Z</time>
      </trkpt>
      <trkpt lat="48.74612" lon="-3.45489">
        <ele>72.24</ele>
        <time>2013-06-10T15:48:45Z</time>
      </trkpt>
      <trkpt lat="48.74614" lon="-3.45483">
        <ele>72.72</ele>
        <time>2013-06-10T15:48:46Z</time>
      </trkpt>
      <trkpt lat="48.74616" lon="-3.45477">
        <ele>73.2</ele>
        <time>2013-06-10T15:48:47Z</time>
      </trkpt>
      <trkpt lat="48.74618" lon="-3.45472">
        <ele>73.68</ele>
        <time>2013-06-10T15:48:48Z</time>
      </trkpt>
      <trkpt lat="48.74621" lon="-3.45467">
        <ele>73.68</ele>
        <time>2013-06-10T15:48:49Z</time>
      </trkpt>
      <trkpt lat="48.74625" lon="-3.45465">
        <ele>74.64</ele>
        <time>2013-06-10T15:48:50Z</time>
      </trkpt>
      <trkpt lat="48.74628" lon="-3.45466">
        <ele>74.64</ele>
        <time>2013-06-10T15:48:51Z</time>
      </trkpt>
      <trkpt lat="48.74632" lon="-3.45469">
        <ele>75.12</ele>
        <time>2013-06-10T15:48:52Z</time>
      </trkpt>
      <trkpt lat="48.74636" lon="-3.45472">
        <ele>75.6</ele>
        <time>2013-06-10T15:48:53Z</time>
      </trkpt>
      <trkpt lat="48.74639" lon="-3.45477">
        <ele>76.08</ele>
        <time>2013-06-10T15:48:54Z</time>
      </trkpt>
      <trkpt lat="48.74643" lon="-3.45481">
        <ele>76.56</ele>
        <time>2013-06-10T15:48:55Z</time>
      </trkpt>
      <trkpt lat="48.74663" lon="-3.45502">
        <ele>78</ele>
        <time>2013-06-10T15:49:01Z</time>
      </trkpt>
      <trkpt lat="48.74677" lon="-3.45517">
        <ele>78.48</ele>
        <time>2013-06-10T15:49:05Z</time>
      </trkpt>
      <trkpt lat="48.74681" lon="-3.45519">
        <ele>78.48</ele>
        <time>2013-06-10T15:49:06Z</time>
      </trkpt>
      <trkpt lat="48.74686" lon="-3.45519">
        <ele>78.97</ele>
        <time>2013-06-10T15:49:07Z</time>
      </trkpt>
      <trkpt lat="48.7469" lon="-3.45517">
        <ele>78.97</ele>
        <time>2013-06-10T15:49:08Z</time>
      </trkpt>
      <trkpt lat="48.74694" lon="-3.45515">
        <ele>78.97</ele>
        <time>2013-06-10T15:49:09Z</time>
      </trkpt>
      <trkpt lat="48.74697" lon="-3.45513">
        <ele>79.45</ele>
        <time>2013-06-10T15:49:10Z</time>
      </trkpt>
      <trkpt lat="48.74699" lon="-3.45503">
        <ele>79.45</ele>
        <time>2013-06-10T15:49:19Z</time>
      </trkpt>
      <trkpt lat="48.74696" lon="-3.45497">
        <ele>82.33</ele>
        <time>2013-06-10T15:49:38Z</time>
      </trkpt>
      <trkpt lat="48.74693" lon="-3.45501">
        <ele>79.45</ele>
        <time>2013-06-10T15:49:58Z</time>
      </trkpt>
      <trkpt lat="48.74693" lon="-3.45499">
        <ele>79.45</ele>
        <time>2013-06-10T15:50:12Z</time>
      </trkpt>
      <trkpt lat="48.74695" lon="-3.45501">
        <ele>79.45</ele>
        <time>2013-06-10T15:50:13Z</time>
      </trkpt>
      <trkpt lat="48.74692" lon="-3.45517">
        <ele>78.97</ele>
        <time>2013-06-10T15:50:17Z</time>
      </trkpt>
      <trkpt lat="48.74688" lon="-3.4552">
        <ele>78.97</ele>
        <time>2013-06-10T15:50:18Z</time>
      </trkpt>
      <trkpt lat="48.74683" lon="-3.4552">
        <ele>78.48</ele>
        <time>2013-06-10T15:50:19Z</time>
      </trkpt>
      <trkpt lat="48.74678" lon="-3.45517">
        <ele>78.48</ele>
        <time>2013-06-10T15:50:20Z</time>
      </trkpt>
      <trkpt lat="48.74673" lon="-3.45513">
        <ele>78.48</ele>
        <time>2013-06-10T15:50:21Z</time>
      </trkpt>
      <trkpt lat="48.74669" lon="-3.45508">
        <ele>78</ele>
        <time>2013-06-10T15:50:22Z</time>
      </trkpt>
      <trkpt lat="48.74629" lon="-3.45469">
        <ele>75.6</ele>
        <time>2013-06-10T15:50:29Z</time>
      </trkpt>
      <trkpt lat="48.74623" lon="-3.4547">
        <ele>75.12</ele>
        <time>2013-06-10T15:50:30Z</time>
      </trkpt>
      <trkpt lat="48.74617" lon="-3.45477">
        <ele>74.16</ele>
        <time>2013-06-10T15:50:31Z</time>
      </trkpt>
      <trkpt lat="48.74605" lon="-3.45501">
        <ele>73.2</ele>
        <time>2013-06-10T15:50:34Z</time>
      </trkpt>
      <trkpt lat="48.746" lon="-3.45509">
        <ele>70.79</ele>
        <time>2013-06-10T15:50:37Z</time>
      </trkpt>
      <trkpt lat="48.74591" lon="-3.45514">
        <ele>70.31</ele>
        <time>2013-06-10T15:50:42Z</time>
      </trkpt>
      <trkpt lat="48.74588" lon="-3.45512">
        <ele>70.31</ele>
        <time>2013-06-10T15:50:43Z</time>
      </trkpt>
      <trkpt lat="48.74584" lon="-3.45508">
        <ele>70.31</ele>
        <time>2013-06-10T15:50:44Z</time>
      </trkpt>
      <trkpt lat="48.7458" lon="-3.45503">
        <ele>69.83</ele>
        <time>2013-06-10T15:50:45Z</time>
      </trkpt>
      <trkpt lat="48.74577" lon="-3.45498">
        <ele>69.35</ele>
        <time>2013-06-10T15:50:46Z</time>
      </trkpt>
      <trkpt lat="48.74556" lon="-3.45459">
        <ele>66.47</ele>
        <time>2013-06-10T15:50:52Z</time>
      </trkpt>
      <trkpt lat="48.7453" lon="-3.45405">
        <ele>65.03</ele>
        <time>2013-06-10T15:50:56Z</time>
      </trkpt>
      <trkpt lat="48.74487" lon="-3.45352">
        <ele>68.39</ele>
        <time>2013-06-10T15:51:04Z</time>
      </trkpt>
      <trkpt lat="48.74474" lon="-3.45336">
        <ele>70.31</ele>
        <time>2013-06-10T15:51:08Z</time>
      </trkpt>
      <trkpt lat="48.74445" lon="-3.45299">
        <ele>72.72</ele>
        <time>2013-06-10T15:51:16Z</time>
      </trkpt>
      <trkpt lat="48.74442" lon="-3.45295">
        <ele>73.2</ele>
        <time>2013-06-10T15:51:17Z</time>
      </trkpt>
      <trkpt lat="48.74439" lon="-3.45291">
        <ele>73.2</ele>
        <time>2013-06-10T15:51:18Z</time>
      </trkpt>
      <trkpt lat="48.74417" lon="-3.45264">
        <ele>74.64</ele>
        <time>2013-06-10T15:51:31Z</time>
      </trkpt>
      <trkpt lat="48.74415" lon="-3.45259">
        <ele>74.64</ele>
        <time>2013-06-10T15:51:45Z</time>
      </trkpt>
      <trkpt lat="48.74415" lon="-3.45257">
        <ele>74.64</ele>
        <time>2013-06-10T15:51:52Z</time>
      </trkpt>
      <trkpt lat="48.74414" lon="-3.45256">
        <ele>74.64</ele>
        <time>2013-06-10T15:51:53Z</time>
      </trkpt>
      <trkpt lat="48.74412" lon="-3.45255">
        <ele>75.12</ele>
        <time>2013-06-10T15:51:54Z</time>
      </trkpt>
      <trkpt lat="48.7441" lon="-3.45252">
        <ele>75.12</ele>
        <time>2013-06-10T15:51:55Z</time>
      </trkpt>
      <trkpt lat="48.74407" lon="-3.45248">
        <ele>75.6</ele>
        <time>2013-06-10T15:51:56Z</time>
      </trkpt>
      <trkpt lat="48.74406" lon="-3.45244">
        <ele>75.6</ele>
        <time>2013-06-10T15:51:57Z</time>
      </trkpt>
      <trkpt lat="48.74407" lon="-3.45238">
        <ele>76.08</ele>
        <time>2013-06-10T15:51:58Z</time>
      </trkpt>
      <trkpt lat="48.7441" lon="-3.45232">
        <ele>76.56</ele>
        <time>2013-06-10T15:51:59Z</time>
      </trkpt>
      <trkpt lat="48.74413" lon="-3.45226">
        <ele>76.56</ele>
        <time>2013-06-10T15:52:00Z</time>
      </trkpt>
      <trkpt lat="48.74417" lon="-3.45221">
        <ele>76.56</ele>
        <time>2013-06-10T15:52:01Z</time>
      </trkpt>
      <trkpt lat="48.74421" lon="-3.45217">
        <ele>76.56</ele>
        <time>2013-06-10T15:52:02Z</time>
      </trkpt>
      <trkpt lat="48.74425" lon="-3.45213">
        <ele>76.56</ele>
        <time>2013-06-10T15:52:03Z</time>
      </trkpt>
      <trkpt lat="48.745" lon="-3.45163">
        <ele>77.52</ele>
        <time>2013-06-10T15:52:19Z</time>
      </trkpt>
      <trkpt lat="48.74587" lon="-3.45102">
        <ele>78.97</ele>
        <time>2013-06-10T15:52:38Z</time>
      </trkpt>
      <trkpt lat="48.74606" lon="-3.45092">
        <ele>79.45</ele>
        <time>2013-06-10T15:52:42Z</time>
      </trkpt>
      <trkpt lat="48.74623" lon="-3.45083">
        <ele>80.41</ele>
        <time>2013-06-10T15:52:46Z</time>
      </trkpt>
      <trkpt lat="48.74626" lon="-3.4508">
        <ele>80.41</ele>
        <time>2013-06-10T15:52:47Z</time>
      </trkpt>
      <trkpt lat="48.74634" lon="-3.45073">
        <ele>81.37</ele>
        <time>2013-06-10T15:52:49Z</time>
      </trkpt>
      <trkpt lat="48.74638" lon="-3.45071">
        <ele>81.37</ele>
        <time>2013-06-10T15:52:50Z</time>
      </trkpt>
      <trkpt lat="48.74675" lon="-3.45037">
        <ele>84.73</ele>
        <time>2013-06-10T15:53:00Z</time>
      </trkpt>
      <trkpt lat="48.7472" lon="-3.44994">
        <ele>87.62</ele>
        <time>2013-06-10T15:53:12Z</time>
      </trkpt>
      <trkpt lat="48.74724" lon="-3.4499">
        <ele>88.1</ele>
        <time>2013-06-10T15:53:13Z</time>
      </trkpt>
      <trkpt lat="48.74731" lon="-3.44982">
        <ele>88.58</ele>
        <time>2013-06-10T15:53:15Z</time>
      </trkpt>
      <trkpt lat="48.74734" lon="-3.44978">
        <ele>88.58</ele>
        <time>2013-06-10T15:53:16Z</time>
      </trkpt>
      <trkpt lat="48.74737" lon="-3.44975">
        <ele>88.58</ele>
        <time>2013-06-10T15:53:17Z</time>
      </trkpt>
      <trkpt lat="48.74778" lon="-3.44917">
        <ele>91.94</ele>
        <time>2013-06-10T15:53:30Z</time>
      </trkpt>
      <trkpt lat="48.7478" lon="-3.44911">
        <ele>91.94</ele>
        <time>2013-06-10T15:53:31Z</time>
      </trkpt>
      <trkpt lat="48.74785" lon="-3.44899">
        <ele>91.94</ele>
        <time>2013-06-10T15:53:33Z</time>
      </trkpt>
      <trkpt lat="48.74787" lon="-3.44894">
        <ele>91.94</ele>
        <time>2013-06-10T15:53:34Z</time>
      </trkpt>
      <trkpt lat="48.74791" lon="-3.44891">
        <ele>92.42</ele>
        <time>2013-06-10T15:53:35Z</time>
      </trkpt>
      <trkpt lat="48.74795" lon="-3.44887">
        <ele>92.42</ele>
        <time>2013-06-10T15:53:36Z</time>
      </trkpt>
      <trkpt lat="48.748" lon="-3.44884">
        <ele>92.42</ele>
        <time>2013-06-10T15:53:37Z</time>
      </trkpt>
      <trkpt lat="48.74804" lon="-3.44879">
        <ele>92.42</ele>
        <time>2013-06-10T15:53:38Z</time>
      </trkpt>
      <trkpt lat="48.74807" lon="-3.44874">
        <ele>92.42</ele>
        <time>2013-06-10T15:53:39Z</time>
      </trkpt>
      <trkpt lat="48.7481" lon="-3.44869">
        <ele>92.42</ele>
        <time>2013-06-10T15:53:40Z</time>
      </trkpt>
      <trkpt lat="48.74814" lon="-3.44864">
        <ele>92.42</ele>
        <time>2013-06-10T15:53:41Z</time>
      </trkpt>
      <trkpt lat="48.74818" lon="-3.44858">
        <ele>92.42</ele>
        <time>2013-06-10T15:53:42Z</time>
      </trkpt>
      <trkpt lat="48.74885" lon="-3.44776">
        <ele>92.9</ele>
        <time>2013-06-10T15:53:58Z</time>
      </trkpt>
      <trkpt lat="48.74964" lon="-3.4469">
        <ele>93.39</ele>
        <time>2013-06-10T15:54:16Z</time>
      </trkpt>
      <trkpt lat="48.75043" lon="-3.44615">
        <ele>96.27</ele>
        <time>2013-06-10T15:54:34Z</time>
      </trkpt>
      <trkpt lat="48.75097" lon="-3.44572">
        <ele>97.71</ele>
        <time>2013-06-10T15:54:48Z</time>
      </trkpt>
      <trkpt lat="48.75113" lon="-3.44545">
        <ele>98.67</ele>
        <time>2013-06-10T15:54:58Z</time>
      </trkpt>
      <trkpt lat="48.75152" lon="-3.44456">
        <ele>99.63</ele>
        <time>2013-06-10T15:55:12Z</time>
      </trkpt>
      <trkpt lat="48.7521" lon="-3.44369">
        <ele>102.04</ele>
        <time>2013-06-10T15:55:27Z</time>
      </trkpt>
      <trkpt lat="48.75279" lon="-3.44271">
        <ele>101.56</ele>
        <time>2013-06-10T15:55:43Z</time>
      </trkpt>
      <trkpt lat="48.75331" lon="-3.44156">
        <ele>102.04</ele>
        <time>2013-06-10T15:55:58Z</time>
      </trkpt>
      <trkpt lat="48.75383" lon="-3.44039">
        <ele>102.04</ele>
        <time>2013-06-10T15:56:13Z</time>
      </trkpt>
      <trkpt lat="48.75465" lon="-3.43954">
        <ele>103.48</ele>
        <time>2013-06-10T15:56:29Z</time>
      </trkpt>
      <trkpt lat="48.75573" lon="-3.43892">
        <ele>104.44</ele>
        <time>2013-06-10T15:56:48Z</time>
      </trkpt>
      <trkpt lat="48.75682" lon="-3.43834">
        <ele>105.4</ele>
        <time>2013-06-10T15:57:07Z</time>
      </trkpt>
      <trkpt lat="48.75805" lon="-3.43768">
        <ele>105.4</ele>
        <time>2013-06-10T15:57:28Z</time>
      </trkpt>
      <trkpt lat="48.75916" lon="-3.43703">
        <ele>105.4</ele>
        <time>2013-06-10T15:57:47Z</time>
      </trkpt>
      <trkpt lat="48.76019" lon="-3.43605">
        <ele>105.88</ele>
        <time>2013-06-10T15:58:06Z</time>
      </trkpt>
      <trkpt lat="48.7612" lon="-3.43443">
        <ele>106.36</ele>
        <time>2013-06-10T15:58:28Z</time>
      </trkpt>
      <trkpt lat="48.76207" lon="-3.43284">
        <ele>104.92</ele>
        <time>2013-06-10T15:58:48Z</time>
      </trkpt>
      <trkpt lat="48.76299" lon="-3.43172">
        <ele>102.52</ele>
        <time>2013-06-10T15:59:04Z</time>
      </trkpt>
      <trkpt lat="48.76415" lon="-3.43091">
        <ele>99.63</ele>
        <time>2013-06-10T15:59:20Z</time>
      </trkpt>
      <trkpt lat="48.76537" lon="-3.43033">
        <ele>96.27</ele>
        <time>2013-06-10T15:59:36Z</time>
      </trkpt>
      <trkpt lat="48.76544" lon="-3.43028">
        <ele>96.27</ele>
        <time>2013-06-10T15:59:37Z</time>
      </trkpt>
      <trkpt lat="48.76641" lon="-3.42937">
        <ele>94.83</ele>
        <time>2013-06-10T15:59:51Z</time>
      </trkpt>
      <trkpt lat="48.76746" lon="-3.42813">
        <ele>92.42</ele>
        <time>2013-06-10T16:00:08Z</time>
      </trkpt>
      <trkpt lat="48.76844" lon="-3.42737">
        <ele>93.39</ele>
        <time>2013-06-10T16:00:24Z</time>
      </trkpt>
      <trkpt lat="48.76901" lon="-3.42689">
        <ele>92.9</ele>
        <time>2013-06-10T16:00:34Z</time>
      </trkpt>
      <trkpt lat="48.77" lon="-3.42568">
        <ele>91.94</ele>
        <time>2013-06-10T16:00:52Z</time>
      </trkpt>
      <trkpt lat="48.77076" lon="-3.42451">
        <ele>88.58</ele>
        <time>2013-06-10T16:01:06Z</time>
      </trkpt>
      <trkpt lat="48.7719" lon="-3.42281">
        <ele>85.69</ele>
        <time>2013-06-10T16:01:25Z</time>
      </trkpt>
      <trkpt lat="48.77277" lon="-3.42149">
        <ele>83.77</ele>
        <time>2013-06-10T16:01:41Z</time>
      </trkpt>
      <trkpt lat="48.7736" lon="-3.41973">
        <ele>82.33</ele>
        <time>2013-06-10T16:02:00Z</time>
      </trkpt>
      <trkpt lat="48.7744" lon="-3.41817">
        <ele>80.41</ele>
        <time>2013-06-10T16:02:17Z</time>
      </trkpt>
      <trkpt lat="48.77546" lon="-3.41682">
        <ele>81.37</ele>
        <time>2013-06-10T16:02:36Z</time>
      </trkpt>
      <trkpt lat="48.77632" lon="-3.41577">
        <ele>83.29</ele>
        <time>2013-06-10T16:02:54Z</time>
      </trkpt>
      <trkpt lat="48.77712" lon="-3.41468">
        <ele>86.18</ele>
        <time>2013-06-10T16:03:12Z</time>
      </trkpt>
      <trkpt lat="48.77768" lon="-3.4134">
        <ele>89.06</ele>
        <time>2013-06-10T16:03:29Z</time>
      </trkpt>
      <trkpt lat="48.7781" lon="-3.41183">
        <ele>90.02</ele>
        <time>2013-06-10T16:03:47Z</time>
      </trkpt>
      <trkpt lat="48.77854" lon="-3.40997">
        <ele>90.02</ele>
        <time>2013-06-10T16:04:08Z</time>
      </trkpt>
      <trkpt lat="48.77898" lon="-3.40821">
        <ele>91.46</ele>
        <time>2013-06-10T16:04:28Z</time>
      </trkpt>
      <trkpt lat="48.77955" lon="-3.40635">
        <ele>92.9</ele>
        <time>2013-06-10T16:04:50Z</time>
      </trkpt>
      <trkpt lat="48.78014" lon="-3.40485">
        <ele>93.87</ele>
        <time>2013-06-10T16:05:09Z</time>
      </trkpt>
      <trkpt lat="48.78069" lon="-3.40351">
        <ele>94.83</ele>
        <time>2013-06-10T16:05:26Z</time>
      </trkpt>
      <trkpt lat="48.78145" lon="-3.40168">
        <ele>94.83</ele>
        <time>2013-06-10T16:05:48Z</time>
      </trkpt>
      <trkpt lat="48.7822" lon="-3.39985">
        <ele>93.87</ele>
        <time>2013-06-10T16:06:09Z</time>
      </trkpt>
      <trkpt lat="48.78287" lon="-3.3983">
        <ele>93.87</ele>
        <time>2013-06-10T16:06:27Z</time>
      </trkpt>
      <trkpt lat="48.78363" lon="-3.39722">
        <ele>93.87</ele>
        <time>2013-06-10T16:06:43Z</time>
      </trkpt>
      <trkpt lat="48.78451" lon="-3.3966">
        <ele>92.42</ele>
        <time>2013-06-10T16:06:57Z</time>
      </trkpt>
      <trkpt lat="48.78471" lon="-3.39652">
        <ele>92.42</ele>
        <time>2013-06-10T16:07:00Z</time>
      </trkpt>
      <trkpt lat="48.78477" lon="-3.39647">
        <ele>92.42</ele>
        <time>2013-06-10T16:07:01Z</time>
      </trkpt>
      <trkpt lat="48.7848" lon="-3.39639">
        <ele>91.94</ele>
        <time>2013-06-10T16:07:02Z</time>
      </trkpt>
      <trkpt lat="48.78482" lon="-3.3963">
        <ele>91.46</ele>
        <time>2013-06-10T16:07:03Z</time>
      </trkpt>
      <trkpt lat="48.78481" lon="-3.39621">
        <ele>91.46</ele>
        <time>2013-06-10T16:07:04Z</time>
      </trkpt>
      <trkpt lat="48.7848" lon="-3.39613">
        <ele>91.46</ele>
        <time>2013-06-10T16:07:05Z</time>
      </trkpt>
      <trkpt lat="48.78477" lon="-3.39606">
        <ele>91.46</ele>
        <time>2013-06-10T16:07:06Z</time>
      </trkpt>
      <trkpt lat="48.78472" lon="-3.396">
        <ele>91.46</ele>
        <time>2013-06-10T16:07:07Z</time>
      </trkpt>
      <trkpt lat="48.78466" lon="-3.39595">
        <ele>91.46</ele>
        <time>2013-06-10T16:07:08Z</time>
      </trkpt>
      <trkpt lat="48.7846" lon="-3.3959">
        <ele>91.46</ele>
        <time>2013-06-10T16:07:09Z</time>
      </trkpt>
      <trkpt lat="48.78364" lon="-3.39508">
        <ele>92.9</ele>
        <time>2013-06-10T16:07:25Z</time>
      </trkpt>
      <trkpt lat="48.78295" lon="-3.39403">
        <ele>92.42</ele>
        <time>2013-06-10T16:07:39Z</time>
      </trkpt>
      <trkpt lat="48.78241" lon="-3.39259">
        <ele>93.39</ele>
        <time>2013-06-10T16:07:55Z</time>
      </trkpt>
      <trkpt lat="48.78201" lon="-3.39089">
        <ele>90.5</ele>
        <time>2013-06-10T16:08:10Z</time>
      </trkpt>
      <trkpt lat="48.78142" lon="-3.38842">
        <ele>88.58</ele>
        <time>2013-06-10T16:08:31Z</time>
      </trkpt>
      <trkpt lat="48.78085" lon="-3.38689">
        <ele>88.1</ele>
        <time>2013-06-10T16:08:46Z</time>
      </trkpt>
      <trkpt lat="48.78026" lon="-3.38537">
        <ele>90.5</ele>
        <time>2013-06-10T16:09:03Z</time>
      </trkpt>
      <trkpt lat="48.77964" lon="-3.3838">
        <ele>92.42</ele>
        <time>2013-06-10T16:09:21Z</time>
      </trkpt>
      <trkpt lat="48.7789" lon="-3.38191">
        <ele>92.42</ele>
        <time>2013-06-10T16:09:41Z</time>
      </trkpt>
      <trkpt lat="48.77812" lon="-3.37994">
        <ele>90.02</ele>
        <time>2013-06-10T16:09:59Z</time>
      </trkpt>
      <trkpt lat="48.77727" lon="-3.37774">
        <ele>86.66</ele>
        <time>2013-06-10T16:10:19Z</time>
      </trkpt>
      <trkpt lat="48.7766" lon="-3.37598">
        <ele>87.62</ele>
        <time>2013-06-10T16:10:36Z</time>
      </trkpt>
      <trkpt lat="48.77609" lon="-3.3747">
        <ele>90.5</ele>
        <time>2013-06-10T16:10:53Z</time>
      </trkpt>
      <trkpt lat="48.77588" lon="-3.37421">
        <ele>93.39</ele>
        <time>2013-06-10T16:11:01Z</time>
      </trkpt>
      <trkpt lat="48.77562" lon="-3.37354">
        <ele>96.27</ele>
        <time>2013-06-10T16:11:12Z</time>
      </trkpt>
      <trkpt lat="48.77529" lon="-3.37271">
        <ele>99.15</ele>
        <time>2013-06-10T16:11:24Z</time>
      </trkpt>
      <trkpt lat="48.77469" lon="-3.37119">
        <ele>101.08</ele>
        <time>2013-06-10T16:11:44Z</time>
      </trkpt>
      <trkpt lat="48.77409" lon="-3.36974">
        <ele>99.15</ele>
        <time>2013-06-10T16:12:00Z</time>
      </trkpt>
      <trkpt lat="48.77325" lon="-3.36816">
        <ele>98.67</ele>
        <time>2013-06-10T16:12:18Z</time>
      </trkpt>
      <trkpt lat="48.77252" lon="-3.3669">
        <ele>101.08</ele>
        <time>2013-06-10T16:12:35Z</time>
      </trkpt>
      <trkpt lat="48.77206" lon="-3.36618">
        <ele>103.96</ele>
        <time>2013-06-10T16:12:47Z</time>
      </trkpt>
      <trkpt lat="48.772" lon="-3.36615">
        <ele>103.96</ele>
        <time>2013-06-10T16:12:48Z</time>
      </trkpt>
      <trkpt lat="48.77195" lon="-3.3661">
        <ele>103.96</ele>
        <time>2013-06-10T16:12:49Z</time>
      </trkpt>
      <trkpt lat="48.77191" lon="-3.36604">
        <ele>104.44</ele>
        <time>2013-06-10T16:12:50Z</time>
      </trkpt>
      <trkpt lat="48.77188" lon="-3.36597">
        <ele>104.44</ele>
        <time>2013-06-10T16:12:51Z</time>
      </trkpt>
      <trkpt lat="48.77187" lon="-3.36588">
        <ele>104.92</ele>
        <time>2013-06-10T16:12:52Z</time>
      </trkpt>
      <trkpt lat="48.77185" lon="-3.3658">
        <ele>104.92</ele>
        <time>2013-06-10T16:12:53Z</time>
      </trkpt>
      <trkpt lat="48.77183" lon="-3.36572">
        <ele>104.92</ele>
        <time>2013-06-10T16:12:54Z</time>
      </trkpt>
      <trkpt lat="48.77179" lon="-3.36564">
        <ele>104.92</ele>
        <time>2013-06-10T16:12:55Z</time>
      </trkpt>
      <trkpt lat="48.77176" lon="-3.36556">
        <ele>104.92</ele>
        <time>2013-06-10T16:12:56Z</time>
      </trkpt>
      <trkpt lat="48.77172" lon="-3.36549">
        <ele>104.92</ele>
        <time>2013-06-10T16:12:57Z</time>
      </trkpt>
      <trkpt lat="48.77097" lon="-3.36418">
        <ele>107.81</ele>
        <time>2013-06-10T16:13:16Z</time>
      </trkpt>
      <trkpt lat="48.77061" lon="-3.36349">
        <ele>107.81</ele>
        <time>2013-06-10T16:13:25Z</time>
      </trkpt>
      <trkpt lat="48.77056" lon="-3.36342">
        <ele>107.81</ele>
        <time>2013-06-10T16:13:26Z</time>
      </trkpt>
      <trkpt lat="48.77051" lon="-3.36335">
        <ele>107.81</ele>
        <time>2013-06-10T16:13:27Z</time>
      </trkpt>
      <trkpt lat="48.77046" lon="-3.36327">
        <ele>108.29</ele>
        <time>2013-06-10T16:13:28Z</time>
      </trkpt>
      <trkpt lat="48.77042" lon="-3.3632">
        <ele>108.29</ele>
        <time>2013-06-10T16:13:29Z</time>
      </trkpt>
      <trkpt lat="48.76957" lon="-3.36164">
        <ele>108.29</ele>
        <time>2013-06-10T16:13:49Z</time>
      </trkpt>
      <trkpt lat="48.76912" lon="-3.36005">
        <ele>107.81</ele>
        <time>2013-06-10T16:14:05Z</time>
      </trkpt>
      <trkpt lat="48.76867" lon="-3.35821">
        <ele>105.88</ele>
        <time>2013-06-10T16:14:22Z</time>
      </trkpt>
      <trkpt lat="48.7684" lon="-3.35626">
        <ele>103.96</ele>
        <time>2013-06-10T16:14:38Z</time>
      </trkpt>
      <trkpt lat="48.7684" lon="-3.35603">
        <ele>103</ele>
        <time>2013-06-10T16:14:40Z</time>
      </trkpt>
      <trkpt lat="48.76858" lon="-3.35437">
        <ele>103.48</ele>
        <time>2013-06-10T16:14:55Z</time>
      </trkpt>
      <trkpt lat="48.76887" lon="-3.35224">
        <ele>103.96</ele>
        <time>2013-06-10T16:15:15Z</time>
      </trkpt>
      <trkpt lat="48.76914" lon="-3.35021">
        <ele>105.4</ele>
        <time>2013-06-10T16:15:34Z</time>
      </trkpt>
      <trkpt lat="48.76936" lon="-3.3486">
        <ele>105.88</ele>
        <time>2013-06-10T16:15:49Z</time>
      </trkpt>
      <trkpt lat="48.76968" lon="-3.34606">
        <ele>105.88</ele>
        <time>2013-06-10T16:16:12Z</time>
      </trkpt>
      <trkpt lat="48.76985" lon="-3.34416">
        <ele>105.4</ele>
        <time>2013-06-10T16:16:29Z</time>
      </trkpt>
      <trkpt lat="48.76987" lon="-3.34199">
        <ele>104.44</ele>
        <time>2013-06-10T16:16:48Z</time>
      </trkpt>
      <trkpt lat="48.76988" lon="-3.34105">
        <ele>102.52</ele>
        <time>2013-06-10T16:16:56Z</time>
      </trkpt>
      <trkpt lat="48.76991" lon="-3.33828">
        <ele>99.15</ele>
        <time>2013-06-10T16:17:18Z</time>
      </trkpt>
      <trkpt lat="48.76992" lon="-3.33583">
        <ele>96.75</ele>
        <time>2013-06-10T16:17:37Z</time>
      </trkpt>
      <trkpt lat="48.76992" lon="-3.3334">
        <ele>95.31</ele>
        <time>2013-06-10T16:17:57Z</time>
      </trkpt>
      <trkpt lat="48.7699" lon="-3.33316">
        <ele>94.83</ele>
        <time>2013-06-10T16:17:59Z</time>
      </trkpt>
      <trkpt lat="48.76958" lon="-3.3308">
        <ele>93.39</ele>
        <time>2013-06-10T16:18:19Z</time>
      </trkpt>
      <trkpt lat="48.76927" lon="-3.32859">
        <ele>91.94</ele>
        <time>2013-06-10T16:18:38Z</time>
      </trkpt>
      <trkpt lat="48.76894" lon="-3.32632">
        <ele>89.54</ele>
        <time>2013-06-10T16:18:57Z</time>
      </trkpt>
      <trkpt lat="48.76885" lon="-3.32566">
        <ele>87.14</ele>
        <time>2013-06-10T16:19:02Z</time>
      </trkpt>
      <trkpt lat="48.76863" lon="-3.32414">
        <ele>83.77</ele>
        <time>2013-06-10T16:19:13Z</time>
      </trkpt>
      <trkpt lat="48.7685" lon="-3.32247">
        <ele>80.41</ele>
        <time>2013-06-10T16:19:25Z</time>
      </trkpt>
      <trkpt lat="48.76859" lon="-3.31998">
        <ele>77.52</ele>
        <time>2013-06-10T16:19:44Z</time>
      </trkpt>
      <trkpt lat="48.76869" lon="-3.31709">
        <ele>75.12</ele>
        <time>2013-06-10T16:20:07Z</time>
      </trkpt>
      <trkpt lat="48.76854" lon="-3.31498">
        <ele>73.2</ele>
        <time>2013-06-10T16:20:24Z</time>
      </trkpt>
      <trkpt lat="48.76801" lon="-3.31296">
        <ele>71.76</ele>
        <time>2013-06-10T16:20:41Z</time>
      </trkpt>
      <trkpt lat="48.76735" lon="-3.31065">
        <ele>69.83</ele>
        <time>2013-06-10T16:21:01Z</time>
      </trkpt>
      <trkpt lat="48.7667" lon="-3.30834">
        <ele>66.47</ele>
        <time>2013-06-10T16:21:21Z</time>
      </trkpt>
      <trkpt lat="48.76643" lon="-3.30759">
        <ele>64.55</ele>
        <time>2013-06-10T16:21:27Z</time>
      </trkpt>
      <trkpt lat="48.76615" lon="-3.30696">
        <ele>60.7</ele>
        <time>2013-06-10T16:21:32Z</time>
      </trkpt>
      <trkpt lat="48.76584" lon="-3.30629">
        <ele>58.78</ele>
        <time>2013-06-10T16:21:37Z</time>
      </trkpt>
      <trkpt lat="48.76539" lon="-3.30535">
        <ele>55.89</ele>
        <time>2013-06-10T16:21:44Z</time>
      </trkpt>
      <trkpt lat="48.76497" lon="-3.30441">
        <ele>53.01</ele>
        <time>2013-06-10T16:21:51Z</time>
      </trkpt>
      <trkpt lat="48.76462" lon="-3.30289">
        <ele>49.65</ele>
        <time>2013-06-10T16:22:01Z</time>
      </trkpt>
      <trkpt lat="48.7645" lon="-3.30095">
        <ele>47.24</ele>
        <time>2013-06-10T16:22:16Z</time>
      </trkpt>
      <trkpt lat="48.76433" lon="-3.29877">
        <ele>45.32</ele>
        <time>2013-06-10T16:22:34Z</time>
      </trkpt>
      <trkpt lat="48.76426" lon="-3.29837">
        <ele>43.88</ele>
        <time>2013-06-10T16:22:37Z</time>
      </trkpt>
      <trkpt lat="48.76412" lon="-3.29797">
        <ele>42.44</ele>
        <time>2013-06-10T16:22:40Z</time>
      </trkpt>
      <trkpt lat="48.76406" lon="-3.29784">
        <ele>41.95</ele>
        <time>2013-06-10T16:22:41Z</time>
      </trkpt>
      <trkpt lat="48.76399" lon="-3.29772">
        <ele>41.47</ele>
        <time>2013-06-10T16:22:42Z</time>
      </trkpt>
      <trkpt lat="48.76359" lon="-3.29718">
        <ele>38.59</ele>
        <time>2013-06-10T16:22:47Z</time>
      </trkpt>
      <trkpt lat="48.76308" lon="-3.29683">
        <ele>35.23</ele>
        <time>2013-06-10T16:22:52Z</time>
      </trkpt>
      <trkpt lat="48.76298" lon="-3.29677">
        <ele>34.74</ele>
        <time>2013-06-10T16:22:53Z</time>
      </trkpt>
      <trkpt lat="48.76255" lon="-3.29651">
        <ele>32.34</ele>
        <time>2013-06-10T16:22:57Z</time>
      </trkpt>
      <trkpt lat="48.76216" lon="-3.29621">
        <ele>31.38</ele>
        <time>2013-06-10T16:23:01Z</time>
      </trkpt>
      <trkpt lat="48.76112" lon="-3.295">
        <ele>28.98</ele>
        <time>2013-06-10T16:23:15Z</time>
      </trkpt>
      <trkpt lat="48.76053" lon="-3.29427">
        <ele>30.42</ele>
        <time>2013-06-10T16:23:26Z</time>
      </trkpt>
      <trkpt lat="48.76049" lon="-3.29424">
        <ele>30.42</ele>
        <time>2013-06-10T16:23:27Z</time>
      </trkpt>
      <trkpt lat="48.76046" lon="-3.29424">
        <ele>29.94</ele>
        <time>2013-06-10T16:23:28Z</time>
      </trkpt>
      <trkpt lat="48.76042" lon="-3.29425">
        <ele>30.42</ele>
        <time>2013-06-10T16:23:29Z</time>
      </trkpt>
      <trkpt lat="48.76037" lon="-3.29426">
        <ele>30.42</ele>
        <time>2013-06-10T16:23:30Z</time>
      </trkpt>
      <trkpt lat="48.76032" lon="-3.29427">
        <ele>30.42</ele>
        <time>2013-06-10T16:23:31Z</time>
      </trkpt>
      <trkpt lat="48.76027" lon="-3.29427">
        <ele>30.42</ele>
        <time>2013-06-10T16:23:32Z</time>
      </trkpt>
      <trkpt lat="48.76022" lon="-3.29426">
        <ele>29.94</ele>
        <time>2013-06-10T16:23:33Z</time>
      </trkpt>
      <trkpt lat="48.76017" lon="-3.29422">
        <ele>29.94</ele>
        <time>2013-06-10T16:23:34Z</time>
      </trkpt>
      <trkpt lat="48.76011" lon="-3.29418">
        <ele>29.94</ele>
        <time>2013-06-10T16:23:35Z</time>
      </trkpt>
      <trkpt lat="48.76006" lon="-3.29412">
        <ele>29.46</ele>
        <time>2013-06-10T16:23:36Z</time>
      </trkpt>
      <trkpt lat="48.76" lon="-3.29406">
        <ele>29.94</ele>
        <time>2013-06-10T16:23:37Z</time>
      </trkpt>
      <trkpt lat="48.75995" lon="-3.29399">
        <ele>29.94</ele>
        <time>2013-06-10T16:23:38Z</time>
      </trkpt>
      <trkpt lat="48.7599" lon="-3.29393">
        <ele>30.42</ele>
        <time>2013-06-10T16:23:39Z</time>
      </trkpt>
      <trkpt lat="48.75984" lon="-3.29388">
        <ele>30.42</ele>
        <time>2013-06-10T16:23:40Z</time>
      </trkpt>
      <trkpt lat="48.75978" lon="-3.29385">
        <ele>30.42</ele>
        <time>2013-06-10T16:23:41Z</time>
      </trkpt>
      <trkpt lat="48.75972" lon="-3.29382">
        <ele>30.9</ele>
        <time>2013-06-10T16:23:42Z</time>
      </trkpt>
      <trkpt lat="48.75967" lon="-3.29377">
        <ele>30.9</ele>
        <time>2013-06-10T16:23:43Z</time>
      </trkpt>
      <trkpt lat="48.75961" lon="-3.29373">
        <ele>31.38</ele>
        <time>2013-06-10T16:23:44Z</time>
      </trkpt>
      <trkpt lat="48.75956" lon="-3.29367">
        <ele>31.38</ele>
        <time>2013-06-10T16:23:45Z</time>
      </trkpt>
      <trkpt lat="48.75887" lon="-3.29286">
        <ele>34.26</ele>
        <time>2013-06-10T16:23:59Z</time>
      </trkpt>
      <trkpt lat="48.75795" lon="-3.29222">
        <ele>33.78</ele>
        <time>2013-06-10T16:24:13Z</time>
      </trkpt>
      <trkpt lat="48.7578" lon="-3.29216">
        <ele>33.3</ele>
        <time>2013-06-10T16:24:15Z</time>
      </trkpt>
      <trkpt lat="48.75772" lon="-3.29213">
        <ele>33.78</ele>
        <time>2013-06-10T16:24:16Z</time>
      </trkpt>
      <trkpt lat="48.75658" lon="-3.29197">
        <ele>36.19</ele>
        <time>2013-06-10T16:24:32Z</time>
      </trkpt>
      <trkpt lat="48.75537" lon="-3.29151">
        <ele>37.63</ele>
        <time>2013-06-10T16:24:51Z</time>
      </trkpt>
      <trkpt lat="48.75417" lon="-3.29101">
        <ele>38.11</ele>
        <time>2013-06-10T16:25:09Z</time>
      </trkpt>
      <trkpt lat="48.75321" lon="-3.29061">
        <ele>36.67</ele>
        <time>2013-06-10T16:25:22Z</time>
      </trkpt>
      <trkpt lat="48.75314" lon="-3.29055">
        <ele>36.67</ele>
        <time>2013-06-10T16:25:23Z</time>
      </trkpt>
      <trkpt lat="48.75307" lon="-3.29048">
        <ele>36.67</ele>
        <time>2013-06-10T16:25:24Z</time>
      </trkpt>
      <trkpt lat="48.75301" lon="-3.29041">
        <ele>36.19</ele>
        <time>2013-06-10T16:25:25Z</time>
      </trkpt>
      <trkpt lat="48.75296" lon="-3.29032">
        <ele>36.19</ele>
        <time>2013-06-10T16:25:26Z</time>
      </trkpt>
      <trkpt lat="48.75291" lon="-3.29022">
        <ele>35.71</ele>
        <time>2013-06-10T16:25:27Z</time>
      </trkpt>
      <trkpt lat="48.75287" lon="-3.29011">
        <ele>35.71</ele>
        <time>2013-06-10T16:25:28Z</time>
      </trkpt>
      <trkpt lat="48.75283" lon="-3.29">
        <ele>35.71</ele>
        <time>2013-06-10T16:25:29Z</time>
      </trkpt>
      <trkpt lat="48.7528" lon="-3.28989">
        <ele>35.71</ele>
        <time>2013-06-10T16:25:30Z</time>
      </trkpt>
      <trkpt lat="48.75254" lon="-3.2885">
        <ele>32.34</ele>
        <time>2013-06-10T16:25:41Z</time>
      </trkpt>
      <trkpt lat="48.75241" lon="-3.28705">
        <ele>29.46</ele>
        <time>2013-06-10T16:25:51Z</time>
      </trkpt>
      <trkpt lat="48.75222" lon="-3.28509">
        <ele>28.98</ele>
        <time>2013-06-10T16:26:07Z</time>
      </trkpt>
      <trkpt lat="48.75194" lon="-3.28353">
        <ele>30.42</ele>
        <time>2013-06-10T16:26:23Z</time>
      </trkpt>
      <trkpt lat="48.75158" lon="-3.28226">
        <ele>34.26</ele>
        <time>2013-06-10T16:26:38Z</time>
      </trkpt>
      <trkpt lat="48.75151" lon="-3.28213">
        <ele>33.78</ele>
        <time>2013-06-10T16:26:40Z</time>
      </trkpt>
      <trkpt lat="48.75148" lon="-3.28208">
        <ele>34.26</ele>
        <time>2013-06-10T16:26:41Z</time>
      </trkpt>
      <trkpt lat="48.75144" lon="-3.28203">
        <ele>34.26</ele>
        <time>2013-06-10T16:26:42Z</time>
      </trkpt>
      <trkpt lat="48.75085" lon="-3.28142">
        <ele>37.15</ele>
        <time>2013-06-10T16:26:55Z</time>
      </trkpt>
      <trkpt lat="48.75076" lon="-3.28131">
        <ele>37.15</ele>
        <time>2013-06-10T16:26:57Z</time>
      </trkpt>
      <trkpt lat="48.75071" lon="-3.28128">
        <ele>37.63</ele>
        <time>2013-06-10T16:26:58Z</time>
      </trkpt>
      <trkpt lat="48.75066" lon="-3.28128">
        <ele>37.63</ele>
        <time>2013-06-10T16:26:59Z</time>
      </trkpt>
      <trkpt lat="48.75061" lon="-3.2813">
        <ele>37.63</ele>
        <time>2013-06-10T16:27:00Z</time>
      </trkpt>
      <trkpt lat="48.75056" lon="-3.28134">
        <ele>38.11</ele>
        <time>2013-06-10T16:27:01Z</time>
      </trkpt>
      <trkpt lat="48.7505" lon="-3.28139">
        <ele>38.11</ele>
        <time>2013-06-10T16:27:02Z</time>
      </trkpt>
      <trkpt lat="48.75045" lon="-3.28144">
        <ele>38.11</ele>
        <time>2013-06-10T16:27:03Z</time>
      </trkpt>
      <trkpt lat="48.75039" lon="-3.28148">
        <ele>38.11</ele>
        <time>2013-06-10T16:27:04Z</time>
      </trkpt>
      <trkpt lat="48.75029" lon="-3.28159">
        <ele>38.59</ele>
        <time>2013-06-10T16:27:06Z</time>
      </trkpt>
      <trkpt lat="48.75025" lon="-3.28165">
        <ele>38.59</ele>
        <time>2013-06-10T16:27:07Z</time>
      </trkpt>
      <trkpt lat="48.75021" lon="-3.28172">
        <ele>38.59</ele>
        <time>2013-06-10T16:27:08Z</time>
      </trkpt>
      <trkpt lat="48.74996" lon="-3.28224">
        <ele>40.51</ele>
        <time>2013-06-10T16:27:15Z</time>
      </trkpt>
      <trkpt lat="48.74957" lon="-3.28345">
        <ele>40.51</ele>
        <time>2013-06-10T16:27:30Z</time>
      </trkpt>
      <trkpt lat="48.74911" lon="-3.28492">
        <ele>41.47</ele>
        <time>2013-06-10T16:27:47Z</time>
      </trkpt>
      <trkpt lat="48.74909" lon="-3.285">
        <ele>41.95</ele>
        <time>2013-06-10T16:27:48Z</time>
      </trkpt>
      <trkpt lat="48.74885" lon="-3.28655">
        <ele>41.95</ele>
        <time>2013-06-10T16:28:05Z</time>
      </trkpt>
      <trkpt lat="48.74866" lon="-3.28745">
        <ele>39.55</ele>
        <time>2013-06-10T16:28:14Z</time>
      </trkpt>
      <trkpt lat="48.74842" lon="-3.28837">
        <ele>36.67</ele>
        <time>2013-06-10T16:28:22Z</time>
      </trkpt>
      <trkpt lat="48.74839" lon="-3.2885">
        <ele>36.19</ele>
        <time>2013-06-10T16:28:23Z</time>
      </trkpt>
      <trkpt lat="48.74838" lon="-3.28863">
        <ele>35.71</ele>
        <time>2013-06-10T16:28:24Z</time>
      </trkpt>
      <trkpt lat="48.74837" lon="-3.28876">
        <ele>35.71</ele>
        <time>2013-06-10T16:28:25Z</time>
      </trkpt>
      <trkpt lat="48.74845" lon="-3.28959">
        <ele>35.23</ele>
        <time>2013-06-10T16:28:32Z</time>
      </trkpt>
      <trkpt lat="48.74875" lon="-3.29074">
        <ele>37.15</ele>
        <time>2013-06-10T16:28:45Z</time>
      </trkpt>
      <trkpt lat="48.74886" lon="-3.29173">
        <ele>40.03</ele>
        <time>2013-06-10T16:28:59Z</time>
      </trkpt>
      <trkpt lat="48.7487" lon="-3.29283">
        <ele>42.44</ele>
        <time>2013-06-10T16:29:13Z</time>
      </trkpt>
      <trkpt lat="48.74838" lon="-3.2943">
        <ele>44.84</ele>
        <time>2013-06-10T16:29:32Z</time>
      </trkpt>
      <trkpt lat="48.74835" lon="-3.29537">
        <ele>46.28</ele>
        <time>2013-06-10T16:29:45Z</time>
      </trkpt>
      <trkpt lat="48.7481" lon="-3.29681">
        <ele>48.68</ele>
        <time>2013-06-10T16:30:03Z</time>
      </trkpt>
      <trkpt lat="48.74799" lon="-3.29749">
        <ele>49.65</ele>
        <time>2013-06-10T16:30:12Z</time>
      </trkpt>
      <trkpt lat="48.74803" lon="-3.29872">
        <ele>49.65</ele>
        <time>2013-06-10T16:30:27Z</time>
      </trkpt>
      <trkpt lat="48.74825" lon="-3.30012">
        <ele>47.72</ele>
        <time>2013-06-10T16:30:42Z</time>
      </trkpt>
      <trkpt lat="48.74822" lon="-3.30184">
        <ele>45.8</ele>
        <time>2013-06-10T16:30:58Z</time>
      </trkpt>
      <trkpt lat="48.74814" lon="-3.30344">
        <ele>42.44</ele>
        <time>2013-06-10T16:31:11Z</time>
      </trkpt>
      <trkpt lat="48.74816" lon="-3.30448">
        <ele>39.07</ele>
        <time>2013-06-10T16:31:19Z</time>
      </trkpt>
      <trkpt lat="48.74822" lon="-3.30548">
        <ele>35.71</ele>
        <time>2013-06-10T16:31:26Z</time>
      </trkpt>
      <trkpt lat="48.74825" lon="-3.30685">
        <ele>31.86</ele>
        <time>2013-06-10T16:31:36Z</time>
      </trkpt>
      <trkpt lat="48.74807" lon="-3.30865">
        <ele>29.94</ele>
        <time>2013-06-10T16:31:50Z</time>
      </trkpt>
      <trkpt lat="48.74795" lon="-3.30955">
        <ele>30.42</ele>
        <time>2013-06-10T16:31:58Z</time>
      </trkpt>
      <trkpt lat="48.74796" lon="-3.30966">
        <ele>30.9</ele>
        <time>2013-06-10T16:31:59Z</time>
      </trkpt>
      <trkpt lat="48.74798" lon="-3.30975">
        <ele>31.38</ele>
        <time>2013-06-10T16:32:00Z</time>
      </trkpt>
      <trkpt lat="48.74819" lon="-3.31106">
        <ele>34.26</ele>
        <time>2013-06-10T16:32:15Z</time>
      </trkpt>
      <trkpt lat="48.74833" lon="-3.31225">
        <ele>37.63</ele>
        <time>2013-06-10T16:32:29Z</time>
      </trkpt>
      <trkpt lat="48.74833" lon="-3.31311">
        <ele>40.99</ele>
        <time>2013-06-10T16:32:39Z</time>
      </trkpt>
      <trkpt lat="48.74819" lon="-3.3147">
        <ele>42.92</ele>
        <time>2013-06-10T16:32:57Z</time>
      </trkpt>
      <trkpt lat="48.74799" lon="-3.31644">
        <ele>41.95</ele>
        <time>2013-06-10T16:33:15Z</time>
      </trkpt>
      <trkpt lat="48.74776" lon="-3.31792">
        <ele>40.51</ele>
        <time>2013-06-10T16:33:30Z</time>
      </trkpt>
      <trkpt lat="48.74745" lon="-3.31918">
        <ele>40.51</ele>
        <time>2013-06-10T16:33:43Z</time>
      </trkpt>
      <trkpt lat="48.74727" lon="-3.32045">
        <ele>41.95</ele>
        <time>2013-06-10T16:33:57Z</time>
      </trkpt>
      <trkpt lat="48.74713" lon="-3.32186">
        <ele>43.4</ele>
        <time>2013-06-10T16:34:12Z</time>
      </trkpt>
      <trkpt lat="48.74686" lon="-3.32334">
        <ele>44.84</ele>
        <time>2013-06-10T16:34:28Z</time>
      </trkpt>
      <trkpt lat="48.74649" lon="-3.32489">
        <ele>46.76</ele>
        <time>2013-06-10T16:34:46Z</time>
      </trkpt>
      <trkpt lat="48.74623" lon="-3.32644">
        <ele>47.72</ele>
        <time>2013-06-10T16:35:03Z</time>
      </trkpt>
      <trkpt lat="48.74631" lon="-3.32803">
        <ele>46.76</ele>
        <time>2013-06-10T16:35:19Z</time>
      </trkpt>
      <trkpt lat="48.74648" lon="-3.32994">
        <ele>43.88</ele>
        <time>2013-06-10T16:35:37Z</time>
      </trkpt>
      <trkpt lat="48.74655" lon="-3.33148">
        <ele>41.95</ele>
        <time>2013-06-10T16:35:51Z</time>
      </trkpt>
      <trkpt lat="48.74684" lon="-3.3336">
        <ele>40.51</ele>
        <time>2013-06-10T16:36:11Z</time>
      </trkpt>
      <trkpt lat="48.74708" lon="-3.33499">
        <ele>37.63</ele>
        <time>2013-06-10T16:36:24Z</time>
      </trkpt>
      <trkpt lat="48.74709" lon="-3.33618">
        <ele>33.78</ele>
        <time>2013-06-10T16:36:34Z</time>
      </trkpt>
      <trkpt lat="48.7471" lon="-3.33712">
        <ele>31.86</ele>
        <time>2013-06-10T16:36:41Z</time>
      </trkpt>
      <trkpt lat="48.74724" lon="-3.33786">
        <ele>31.38</ele>
        <time>2013-06-10T16:36:48Z</time>
      </trkpt>
      <trkpt lat="48.74724" lon="-3.33796">
        <ele>31.38</ele>
        <time>2013-06-10T16:36:49Z</time>
      </trkpt>
      <trkpt lat="48.74715" lon="-3.33893">
        <ele>32.82</ele>
        <time>2013-06-10T16:37:00Z</time>
      </trkpt>
      <trkpt lat="48.74709" lon="-3.33913">
        <ele>33.3</ele>
        <time>2013-06-10T16:37:03Z</time>
      </trkpt>
      <trkpt lat="48.74678" lon="-3.33987">
        <ele>36.19</ele>
        <time>2013-06-10T16:37:16Z</time>
      </trkpt>
      <trkpt lat="48.74648" lon="-3.34103">
        <ele>37.63</ele>
        <time>2013-06-10T16:37:29Z</time>
      </trkpt>
      <trkpt lat="48.74638" lon="-3.34125">
        <ele>38.59</ele>
        <time>2013-06-10T16:37:32Z</time>
      </trkpt>
      <trkpt lat="48.74616" lon="-3.34161">
        <ele>40.03</ele>
        <time>2013-06-10T16:37:38Z</time>
      </trkpt>
      <trkpt lat="48.74612" lon="-3.34166">
        <ele>40.51</ele>
        <time>2013-06-10T16:37:39Z</time>
      </trkpt>
      <trkpt lat="48.74552" lon="-3.34247">
        <ele>42.44</ele>
        <time>2013-06-10T16:37:53Z</time>
      </trkpt>
      <trkpt lat="48.74488" lon="-3.34388">
        <ele>44.36</ele>
        <time>2013-06-10T16:38:12Z</time>
      </trkpt>
      <trkpt lat="48.74446" lon="-3.34493">
        <ele>47.72</ele>
        <time>2013-06-10T16:38:27Z</time>
      </trkpt>
      <trkpt lat="48.74396" lon="-3.34593">
        <ele>47.72</ele>
        <time>2013-06-10T16:38:41Z</time>
      </trkpt>
      <trkpt lat="48.74333" lon="-3.34697">
        <ele>47.24</ele>
        <time>2013-06-10T16:38:56Z</time>
      </trkpt>
      <trkpt lat="48.74328" lon="-3.34703">
        <ele>47.24</ele>
        <time>2013-06-10T16:38:57Z</time>
      </trkpt>
      <trkpt lat="48.74323" lon="-3.34708">
        <ele>46.76</ele>
        <time>2013-06-10T16:38:58Z</time>
      </trkpt>
      <trkpt lat="48.74266" lon="-3.34753">
        <ele>44.36</ele>
        <time>2013-06-10T16:39:08Z</time>
      </trkpt>
      <trkpt lat="48.74263" lon="-3.34753">
        <ele>43.88</ele>
        <time>2013-06-10T16:39:09Z</time>
      </trkpt>
      <trkpt lat="48.7426" lon="-3.34751">
        <ele>43.88</ele>
        <time>2013-06-10T16:39:10Z</time>
      </trkpt>
      <trkpt lat="48.74258" lon="-3.34749">
        <ele>43.88</ele>
        <time>2013-06-10T16:39:11Z</time>
      </trkpt>
      <trkpt lat="48.74257" lon="-3.34746">
        <ele>43.88</ele>
        <time>2013-06-10T16:39:12Z</time>
      </trkpt>
      <trkpt lat="48.74255" lon="-3.34743">
        <ele>43.88</ele>
        <time>2013-06-10T16:39:13Z</time>
      </trkpt>
      <trkpt lat="48.74235" lon="-3.34711">
        <ele>41.95</ele>
        <time>2013-06-10T16:39:23Z</time>
      </trkpt>
      <trkpt lat="48.74239" lon="-3.34709">
        <ele>40.51</ele>
        <time>2013-06-10T16:39:32Z</time>
      </trkpt>
      <trkpt lat="48.74237" lon="-3.34708">
        <ele>41.47</ele>
        <time>2013-06-10T16:39:44Z</time>
      </trkpt>
      <trkpt lat="48.74237" lon="-3.34706">
        <ele>41.47</ele>
        <time>2013-06-10T16:39:48Z</time>
      </trkpt>
      <trkpt lat="48.74238" lon="-3.34705">
        <ele>41.95</ele>
        <time>2013-06-10T16:39:49Z</time>
      </trkpt>
      <trkpt lat="48.74239" lon="-3.34703">
        <ele>41.95</ele>
        <time>2013-06-10T16:39:50Z</time>
      </trkpt>
      <trkpt lat="48.7424" lon="-3.34701">
        <ele>41.47</ele>
        <time>2013-06-10T16:39:51Z</time>
      </trkpt>
      <trkpt lat="48.7424" lon="-3.34699">
        <ele>41.47</ele>
        <time>2013-06-10T16:39:52Z</time>
      </trkpt>
      <trkpt lat="48.74241" lon="-3.34697">
        <ele>41.95</ele>
        <time>2013-06-10T16:39:53Z</time>
      </trkpt>
      <trkpt lat="48.74242" lon="-3.34694">
        <ele>41.47</ele>
        <time>2013-06-10T16:39:54Z</time>
      </trkpt>
      <trkpt lat="48.74242" lon="-3.34691">
        <ele>41.47</ele>
        <time>2013-06-10T16:39:55Z</time>
      </trkpt>
      <trkpt lat="48.74243" lon="-3.34688">
        <ele>40.99</ele>
        <time>2013-06-10T16:39:56Z</time>
      </trkpt>
      <trkpt lat="48.74244" lon="-3.34685">
        <ele>41.47</ele>
        <time>2013-06-10T16:39:57Z</time>
      </trkpt>
      <trkpt lat="48.74248" lon="-3.34667">
        <ele>40.99</ele>
        <time>2013-06-10T16:40:08Z</time>
      </trkpt>
      <trkpt lat="48.74247" lon="-3.34664">
        <ele>40.99</ele>
        <time>2013-06-10T16:40:22Z</time>
      </trkpt>
      <trkpt lat="48.74245" lon="-3.34661">
        <ele>40.51</ele>
        <time>2013-06-10T16:40:38Z</time>
      </trkpt>
      <trkpt lat="48.74245" lon="-3.3466">
        <ele>40.51</ele>
        <time>2013-06-10T16:41:03Z</time>
      </trkpt>
      <trkpt lat="48.74241" lon="-3.34661">
        <ele>40.51</ele>
        <time>2013-06-10T16:41:26Z</time>
      </trkpt>
      <trkpt lat="48.74243" lon="-3.34662">
        <ele>40.99</ele>
        <time>2013-06-10T16:41:48Z</time>
      </trkpt>
      <trkpt lat="48.74244" lon="-3.34661">
        <ele>40.99</ele>
        <time>2013-06-10T16:42:14Z</time>
      </trkpt>
      <trkpt lat="48.74245" lon="-3.34661">
        <ele>40.51</ele>
        <time>2013-06-10T16:42:44Z</time>
      </trkpt>
      <trkpt lat="48.74244" lon="-3.34659">
        <ele>40.99</ele>
        <time>2013-06-10T16:43:09Z</time>
      </trkpt>
      <trkpt lat="48.74242" lon="-3.3466">
        <ele>40.51</ele>
        <time>2013-06-10T16:43:34Z</time>
      </trkpt>
      <trkpt lat="48.74242" lon="-3.3466">
        <ele>40.99</ele>
        <time>2013-06-10T16:43:56Z</time>
      </trkpt>
      <trkpt lat="48.74245" lon="-3.34659">
        <ele>40.99</ele>
        <time>2013-06-10T16:44:20Z</time>
      </trkpt>
      <trkpt lat="48.74245" lon="-3.3466">
        <ele>40.99</ele>
        <time>2013-06-10T16:44:45Z</time>
      </trkpt>
      <trkpt lat="48.74244" lon="-3.34659">
        <ele>41.47</ele>
        <time>2013-06-10T16:45:12Z</time>
      </trkpt>
      <trkpt lat="48.74244" lon="-3.34662">
        <ele>41.47</ele>
        <time>2013-06-10T16:45:36Z</time>
      </trkpt>
      <trkpt lat="48.74244" lon="-3.34663">
        <ele>40.99</ele>
        <time>2013-06-10T16:46:01Z</time>
      </trkpt>
      <trkpt lat="48.7425" lon="-3.34658">
        <ele>40.99</ele>
        <time>2013-06-10T16:46:22Z</time>
      </trkpt>
      <trkpt lat="48.74256" lon="-3.3466">
        <ele>40.99</ele>
        <time>2013-06-10T16:46:49Z</time>
      </trkpt>
      <trkpt lat="48.74245" lon="-3.34665">
        <ele>40.99</ele>
        <time>2013-06-10T16:46:51Z</time>
      </trkpt>
      <trkpt lat="48.74217" lon="-3.34674">
        <ele>40.99</ele>
        <time>2013-06-10T16:46:53Z</time>
      </trkpt>
      <trkpt lat="48.74202" lon="-3.34675">
        <ele>40.99</ele>
        <time>2013-06-10T16:46:54Z</time>
      </trkpt>
      <trkpt lat="48.74123" lon="-3.34676">
        <ele>40.99</ele>
        <time>2013-06-10T16:47:02Z</time>
      </trkpt>
      <trkpt lat="48.74252" lon="-3.34654">
        <ele>40.99</ele>
        <time>2013-06-10T16:47:11Z</time>
      </trkpt>
      <trkpt lat="48.74249" lon="-3.34654">
        <ele>40.99</ele>
        <time>2013-06-10T16:47:38Z</time>
      </trkpt>
      <trkpt lat="48.74247" lon="-3.34653">
        <ele>40.99</ele>
        <time>2013-06-10T16:48:02Z</time>
      </trkpt>
      <trkpt lat="48.74245" lon="-3.34652">
        <ele>40.99</ele>
        <time>2013-06-10T16:48:23Z</time>
      </trkpt>
      <trkpt lat="48.74242" lon="-3.34657">
        <ele>41.47</ele>
        <time>2013-06-10T16:48:42Z</time>
      </trkpt>
      <trkpt lat="48.74244" lon="-3.34657">
        <ele>41.95</ele>
        <time>2013-06-10T16:49:04Z</time>
      </trkpt>
      <trkpt lat="48.74249" lon="-3.34661">
        <ele>41.47</ele>
        <time>2013-06-10T16:49:24Z</time>
      </trkpt>
      <trkpt lat="48.74249" lon="-3.3466">
        <ele>41.95</ele>
        <time>2013-06-10T16:49:28Z</time>
      </trkpt>
      <trkpt lat="48.74249" lon="-3.3466">
        <ele>41.47</ele>
        <time>2013-06-10T16:49:39Z</time>
      </trkpt>
      <trkpt lat="48.7425" lon="-3.34659">
        <ele>41.47</ele>
        <time>2013-06-10T16:50:08Z</time>
      </trkpt>
      <trkpt lat="48.74254" lon="-3.34658">
        <ele>40.99</ele>
        <time>2013-06-10T16:50:46Z</time>
      </trkpt>
      <trkpt lat="48.74253" lon="-3.34658">
        <ele>40.99</ele>
        <time>2013-06-10T16:51:24Z</time>
      </trkpt>
      <trkpt lat="48.74252" lon="-3.34658">
        <ele>41.47</ele>
        <time>2013-06-10T16:51:59Z</time>
      </trkpt>
      <trkpt lat="48.74252" lon="-3.34658">
        <ele>41.47</ele>
        <time>2013-06-10T16:52:27Z</time>
      </trkpt>
      <trkpt lat="48.74251" lon="-3.34659">
        <ele>40.99</ele>
        <time>2013-06-10T16:52:56Z</time>
      </trkpt>
      <trkpt lat="48.7425" lon="-3.34659">
        <ele>40.99</ele>
        <time>2013-06-10T16:53:17Z</time>
      </trkpt>
      <trkpt lat="48.7425" lon="-3.34659">
        <ele>40.99</ele>
        <time>2013-06-10T16:53:47Z</time>
      </trkpt>
      <trkpt lat="48.7425" lon="-3.34658">
        <ele>40.99</ele>
        <time>2013-06-10T16:54:07Z</time>
      </trkpt>
      <trkpt lat="48.74249" lon="-3.34657">
        <ele>40.99</ele>
        <time>2013-06-10T16:54:27Z</time>
      </trkpt>
      <trkpt lat="48.74249" lon="-3.34658">
        <ele>40.99</ele>
        <time>2013-06-10T16:54:53Z</time>
      </trkpt>
      <trkpt lat="48.74249" lon="-3.34657">
        <ele>40.99</ele>
        <time>2013-06-10T16:55:24Z</time>
      </trkpt>
      <trkpt lat="48.74248" lon="-3.34657">
        <ele>40.99</ele>
        <time>2013-06-10T16:55:45Z</time>
      </trkpt>
      <trkpt lat="48.74249" lon="-3.34657">
        <ele>41.47</ele>
        <time>2013-06-10T16:56:11Z</time>
      </trkpt>
      <trkpt lat="48.7425" lon="-3.34656">
        <ele>40.99</ele>
        <time>2013-06-10T16:56:38Z</time>
      </trkpt>
      <trkpt lat="48.74249" lon="-3.34654">
        <ele>40.99</ele>
        <time>2013-06-10T16:57:11Z</time>
      </trkpt>
      <trkpt lat="48.74246" lon="-3.34655">
        <ele>41.47</ele>
        <time>2013-06-10T16:57:40Z</time>
      </trkpt>
      <trkpt lat="48.74247" lon="-3.34655">
        <ele>40.99</ele>
        <time>2013-06-10T16:58:08Z</time>
      </trkpt>
      <trkpt lat="48.74247" lon="-3.34656">
        <ele>40.99</ele>
        <time>2013-06-10T16:58:32Z</time>
      </trkpt>
      <trkpt lat="48.74249" lon="-3.34664">
        <ele>41.47</ele>
        <time>2013-06-10T16:58:41Z</time>
      </trkpt>
      <trkpt lat="48.74242" lon="-3.34681">
        <ele>41.95</ele>
        <time>2013-06-10T16:58:46Z</time>
      </trkpt>
      <trkpt lat="48.74209" lon="-3.34739">
        <ele>42.44</ele>
        <time>2013-06-10T16:59:02Z</time>
      </trkpt>
      <trkpt lat="48.74179" lon="-3.348">
        <ele>42.44</ele>
        <time>2013-06-10T16:59:16Z</time>
      </trkpt>
      <trkpt lat="48.74198" lon="-3.34833">
        <ele>42.92</ele>
        <time>2013-06-10T16:59:25Z</time>
      </trkpt>
      <trkpt lat="48.74196" lon="-3.34848">
        <ele>42.92</ele>
        <time>2013-06-10T16:59:28Z</time>
      </trkpt>
      <trkpt lat="48.74194" lon="-3.34855">
        <ele>42.92</ele>
        <time>2013-06-10T16:59:29Z</time>
      </trkpt>
      <trkpt lat="48.74191" lon="-3.34862">
        <ele>42.92</ele>
        <time>2013-06-10T16:59:30Z</time>
      </trkpt>
      <trkpt lat="48.74144" lon="-3.34975">
        <ele>42.44</ele>
        <time>2013-06-10T16:59:43Z</time>
      </trkpt>
      <trkpt lat="48.74101" lon="-3.35088">
        <ele>43.88</ele>
        <time>2013-06-10T16:59:58Z</time>
      </trkpt>
      <trkpt lat="48.74079" lon="-3.35141">
        <ele>42.92</ele>
        <time>2013-06-10T17:00:08Z</time>
      </trkpt>
      <trkpt lat="48.74076" lon="-3.35159">
        <ele>43.4</ele>
        <time>2013-06-10T17:00:11Z</time>
      </trkpt>
      <trkpt lat="48.74034" lon="-3.35273">
        <ele>44.36</ele>
        <time>2013-06-10T17:00:26Z</time>
      </trkpt>
      <trkpt lat="48.73991" lon="-3.3541">
        <ele>45.32</ele>
        <time>2013-06-10T17:00:42Z</time>
      </trkpt>
      <trkpt lat="48.73944" lon="-3.35583">
        <ele>45.32</ele>
        <time>2013-06-10T17:01:01Z</time>
      </trkpt>
      <trkpt lat="48.73898" lon="-3.35774">
        <ele>44.36</ele>
        <time>2013-06-10T17:01:21Z</time>
      </trkpt>
      <trkpt lat="48.7387" lon="-3.35843">
        <ele>44.36</ele>
        <time>2013-06-10T17:01:29Z</time>
      </trkpt>
      <trkpt lat="48.73866" lon="-3.35851">
        <ele>42.92</ele>
        <time>2013-06-10T17:01:30Z</time>
      </trkpt>
      <trkpt lat="48.73863" lon="-3.35859">
        <ele>44.84</ele>
        <time>2013-06-10T17:01:31Z</time>
      </trkpt>
      <trkpt lat="48.73861" lon="-3.35866">
        <ele>44.84</ele>
        <time>2013-06-10T17:01:32Z</time>
      </trkpt>
      <trkpt lat="48.73857" lon="-3.35874">
        <ele>45.8</ele>
        <time>2013-06-10T17:01:33Z</time>
      </trkpt>
      <trkpt lat="48.73854" lon="-3.35882">
        <ele>44.84</ele>
        <time>2013-06-10T17:01:34Z</time>
      </trkpt>
      <trkpt lat="48.73819" lon="-3.36008">
        <ele>46.76</ele>
        <time>2013-06-10T17:01:48Z</time>
      </trkpt>
      <trkpt lat="48.73768" lon="-3.36137">
        <ele>47.24</ele>
        <time>2013-06-10T17:02:03Z</time>
      </trkpt>
      <trkpt lat="48.73731" lon="-3.36292">
        <ele>48.68</ele>
        <time>2013-06-10T17:02:20Z</time>
      </trkpt>
      <trkpt lat="48.73725" lon="-3.36359">
        <ele>49.16</ele>
        <time>2013-06-10T17:02:27Z</time>
      </trkpt>
      <trkpt lat="48.73734" lon="-3.36504">
        <ele>50.61</ele>
        <time>2013-06-10T17:02:42Z</time>
      </trkpt>
      <trkpt lat="48.73706" lon="-3.36647">
        <ele>51.09</ele>
        <time>2013-06-10T17:02:57Z</time>
      </trkpt>
      <trkpt lat="48.73704" lon="-3.36677">
        <ele>51.57</ele>
        <time>2013-06-10T17:03:00Z</time>
      </trkpt>
      <trkpt lat="48.73692" lon="-3.3685">
        <ele>51.57</ele>
        <time>2013-06-10T17:03:17Z</time>
      </trkpt>
      <trkpt lat="48.73652" lon="-3.36999">
        <ele>53.97</ele>
        <time>2013-06-10T17:03:34Z</time>
      </trkpt>
      <trkpt lat="48.7362" lon="-3.37137">
        <ele>57.34</ele>
        <time>2013-06-10T17:03:50Z</time>
      </trkpt>
      <trkpt lat="48.736" lon="-3.37261">
        <ele>60.22</ele>
        <time>2013-06-10T17:04:05Z</time>
      </trkpt>
      <trkpt lat="48.73599" lon="-3.37269">
        <ele>60.7</ele>
        <time>2013-06-10T17:04:06Z</time>
      </trkpt>
      <trkpt lat="48.73592" lon="-3.37367">
        <ele>63.58</ele>
        <time>2013-06-10T17:04:18Z</time>
      </trkpt>
      <trkpt lat="48.73591" lon="-3.37375">
        <ele>63.58</ele>
        <time>2013-06-10T17:04:19Z</time>
      </trkpt>
      <trkpt lat="48.7359" lon="-3.37382">
        <ele>63.58</ele>
        <time>2013-06-10T17:04:20Z</time>
      </trkpt>
      <trkpt lat="48.73582" lon="-3.3747">
        <ele>66.47</ele>
        <time>2013-06-10T17:04:31Z</time>
      </trkpt>
      <trkpt lat="48.7358" lon="-3.37477">
        <ele>65.99</ele>
        <time>2013-06-10T17:04:32Z</time>
      </trkpt>
      <trkpt lat="48.7357" lon="-3.37497">
        <ele>66.95</ele>
        <time>2013-06-10T17:04:35Z</time>
      </trkpt>
      <trkpt lat="48.73566" lon="-3.37503">
        <ele>66.95</ele>
        <time>2013-06-10T17:04:36Z</time>
      </trkpt>
      <trkpt lat="48.73518" lon="-3.37548">
        <ele>67.43</ele>
        <time>2013-06-10T17:04:46Z</time>
      </trkpt>
      <trkpt lat="48.73514" lon="-3.37554">
        <ele>67.91</ele>
        <time>2013-06-10T17:04:47Z</time>
      </trkpt>
      <trkpt lat="48.73509" lon="-3.3756">
        <ele>67.91</ele>
        <time>2013-06-10T17:04:48Z</time>
      </trkpt>
      <trkpt lat="48.73505" lon="-3.37567">
        <ele>68.39</ele>
        <time>2013-06-10T17:04:49Z</time>
      </trkpt>
      <trkpt lat="48.73501" lon="-3.37574">
        <ele>67.91</ele>
        <time>2013-06-10T17:04:50Z</time>
      </trkpt>
      <trkpt lat="48.73498" lon="-3.37582">
        <ele>68.39</ele>
        <time>2013-06-10T17:04:51Z</time>
      </trkpt>
      <trkpt lat="48.73486" lon="-3.37614">
        <ele>68.39</ele>
        <time>2013-06-10T17:04:55Z</time>
      </trkpt>
      <trkpt lat="48.73484" lon="-3.37623">
        <ele>68.87</ele>
        <time>2013-06-10T17:04:56Z</time>
      </trkpt>
      <trkpt lat="48.73449" lon="-3.37765">
        <ele>70.31</ele>
        <time>2013-06-10T17:05:13Z</time>
      </trkpt>
      <trkpt lat="48.73415" lon="-3.37831">
        <ele>70.79</ele>
        <time>2013-06-10T17:05:22Z</time>
      </trkpt>
      <trkpt lat="48.7341" lon="-3.37838">
        <ele>70.79</ele>
        <time>2013-06-10T17:05:23Z</time>
      </trkpt>
      <trkpt lat="48.73321" lon="-3.37918">
        <ele>70.79</ele>
        <time>2013-06-10T17:05:38Z</time>
      </trkpt>
      <trkpt lat="48.73262" lon="-3.38011">
        <ele>72.24</ele>
        <time>2013-06-10T17:05:51Z</time>
      </trkpt>
      <trkpt lat="48.7319" lon="-3.3811">
        <ele>75.12</ele>
        <time>2013-06-10T17:06:07Z</time>
      </trkpt>
      <trkpt lat="48.73117" lon="-3.38191">
        <ele>78</ele>
        <time>2013-06-10T17:06:22Z</time>
      </trkpt>
      <trkpt lat="48.7307" lon="-3.38285">
        <ele>79.93</ele>
        <time>2013-06-10T17:06:35Z</time>
      </trkpt>
      <trkpt lat="48.73017" lon="-3.38378">
        <ele>80.89</ele>
        <time>2013-06-10T17:06:49Z</time>
      </trkpt>
      <trkpt lat="48.7298" lon="-3.38438">
        <ele>81.85</ele>
        <time>2013-06-10T17:06:58Z</time>
      </trkpt>
      <trkpt lat="48.72969" lon="-3.38447">
        <ele>81.85</ele>
        <time>2013-06-10T17:07:00Z</time>
      </trkpt>
      <trkpt lat="48.72942" lon="-3.38467">
        <ele>81.37</ele>
        <time>2013-06-10T17:07:05Z</time>
      </trkpt>
      <trkpt lat="48.72937" lon="-3.38473">
        <ele>81.85</ele>
        <time>2013-06-10T17:07:06Z</time>
      </trkpt>
      <trkpt lat="48.72934" lon="-3.38481">
        <ele>82.33</ele>
        <time>2013-06-10T17:07:07Z</time>
      </trkpt>
      <trkpt lat="48.72912" lon="-3.38543">
        <ele>82.81</ele>
        <time>2013-06-10T17:07:15Z</time>
      </trkpt>
      <trkpt lat="48.72911" lon="-3.38551">
        <ele>83.29</ele>
        <time>2013-06-10T17:07:16Z</time>
      </trkpt>
      <trkpt lat="48.7291" lon="-3.38559">
        <ele>83.29</ele>
        <time>2013-06-10T17:07:17Z</time>
      </trkpt>
      <trkpt lat="48.72911" lon="-3.38568">
        <ele>83.29</ele>
        <time>2013-06-10T17:07:18Z</time>
      </trkpt>
      <trkpt lat="48.72914" lon="-3.38578">
        <ele>83.29</ele>
        <time>2013-06-10T17:07:19Z</time>
      </trkpt>
      <trkpt lat="48.72917" lon="-3.38587">
        <ele>83.29</ele>
        <time>2013-06-10T17:07:20Z</time>
      </trkpt>
      <trkpt lat="48.72921" lon="-3.38607">
        <ele>82.81</ele>
        <time>2013-06-10T17:07:22Z</time>
      </trkpt>
      <trkpt lat="48.72922" lon="-3.38618">
        <ele>82.81</ele>
        <time>2013-06-10T17:07:23Z</time>
      </trkpt>
      <trkpt lat="48.72927" lon="-3.38693">
        <ele>81.85</ele>
        <time>2013-06-10T17:07:30Z</time>
      </trkpt>
      <trkpt lat="48.72927" lon="-3.38705">
        <ele>81.37</ele>
        <time>2013-06-10T17:07:31Z</time>
      </trkpt>
      <trkpt lat="48.72925" lon="-3.38715">
        <ele>81.85</ele>
        <time>2013-06-10T17:07:32Z</time>
      </trkpt>
      <trkpt lat="48.72923" lon="-3.38726">
        <ele>81.37</ele>
        <time>2013-06-10T17:07:33Z</time>
      </trkpt>
      <trkpt lat="48.7292" lon="-3.38737">
        <ele>81.37</ele>
        <time>2013-06-10T17:07:34Z</time>
      </trkpt>
      <trkpt lat="48.72916" lon="-3.38746">
        <ele>81.37</ele>
        <time>2013-06-10T17:07:35Z</time>
      </trkpt>
      <trkpt lat="48.72876" lon="-3.3889">
        <ele>81.85</ele>
        <time>2013-06-10T17:07:50Z</time>
      </trkpt>
      <trkpt lat="48.72857" lon="-3.39047">
        <ele>84.25</ele>
        <time>2013-06-10T17:08:05Z</time>
      </trkpt>
      <trkpt lat="48.72844" lon="-3.39168">
        <ele>85.69</ele>
        <time>2013-06-10T17:08:17Z</time>
      </trkpt>
      <trkpt lat="48.72839" lon="-3.39334">
        <ele>85.69</ele>
        <time>2013-06-10T17:08:33Z</time>
      </trkpt>
      <trkpt lat="48.72834" lon="-3.3947">
        <ele>86.18</ele>
        <time>2013-06-10T17:08:46Z</time>
      </trkpt>
      <trkpt lat="48.72832" lon="-3.3962">
        <ele>87.14</ele>
        <time>2013-06-10T17:09:01Z</time>
      </trkpt>
      <trkpt lat="48.72869" lon="-3.39755">
        <ele>86.66</ele>
        <time>2013-06-10T17:09:15Z</time>
      </trkpt>
      <trkpt lat="48.72928" lon="-3.39877">
        <ele>86.18</ele>
        <time>2013-06-10T17:09:29Z</time>
      </trkpt>
      <trkpt lat="48.7297" lon="-3.40005">
        <ele>85.69</ele>
        <time>2013-06-10T17:09:42Z</time>
      </trkpt>
      <trkpt lat="48.72991" lon="-3.40151">
        <ele>83.77</ele>
        <time>2013-06-10T17:09:55Z</time>
      </trkpt>
      <trkpt lat="48.7302" lon="-3.40297">
        <ele>81.85</ele>
        <time>2013-06-10T17:10:08Z</time>
      </trkpt>
      <trkpt lat="48.73022" lon="-3.40331">
        <ele>82.33</ele>
        <time>2013-06-10T17:10:11Z</time>
      </trkpt>
      <trkpt lat="48.73024" lon="-3.40341">
        <ele>82.33</ele>
        <time>2013-06-10T17:10:12Z</time>
      </trkpt>
      <trkpt lat="48.73053" lon="-3.40443">
        <ele>83.29</ele>
        <time>2013-06-10T17:10:23Z</time>
      </trkpt>
      <trkpt lat="48.73055" lon="-3.40453">
        <ele>83.29</ele>
        <time>2013-06-10T17:10:24Z</time>
      </trkpt>
      <trkpt lat="48.73058" lon="-3.40473">
        <ele>82.81</ele>
        <time>2013-06-10T17:10:26Z</time>
      </trkpt>
      <trkpt lat="48.7307" lon="-3.40608">
        <ele>82.33</ele>
        <time>2013-06-10T17:10:39Z</time>
      </trkpt>
      <trkpt lat="48.73118" lon="-3.40713">
        <ele>80.89</ele>
        <time>2013-06-10T17:10:50Z</time>
      </trkpt>
      <trkpt lat="48.73121" lon="-3.40724">
        <ele>80.89</ele>
        <time>2013-06-10T17:10:51Z</time>
      </trkpt>
      <trkpt lat="48.7316" lon="-3.40894">
        <ele>78.97</ele>
        <time>2013-06-10T17:11:06Z</time>
      </trkpt>
      <trkpt lat="48.73194" lon="-3.41071">
        <ele>79.45</ele>
        <time>2013-06-10T17:11:23Z</time>
      </trkpt>
      <trkpt lat="48.73212" lon="-3.41232">
        <ele>77.52</ele>
        <time>2013-06-10T17:11:37Z</time>
      </trkpt>
      <trkpt lat="48.73219" lon="-3.41418">
        <ele>77.52</ele>
        <time>2013-06-10T17:11:53Z</time>
      </trkpt>
      <trkpt lat="48.73218" lon="-3.41449">
        <ele>78</ele>
        <time>2013-06-10T17:11:56Z</time>
      </trkpt>
      <trkpt lat="48.73214" lon="-3.41583">
        <ele>74.64</ele>
        <time>2013-06-10T17:12:07Z</time>
      </trkpt>
      <trkpt lat="48.73215" lon="-3.41611">
        <ele>74.16</ele>
        <time>2013-06-10T17:12:09Z</time>
      </trkpt>
      <trkpt lat="48.73242" lon="-3.41774">
        <ele>71.76</ele>
        <time>2013-06-10T17:12:22Z</time>
      </trkpt>
      <trkpt lat="48.73278" lon="-3.41899">
        <ele>68.87</ele>
        <time>2013-06-10T17:12:33Z</time>
      </trkpt>
      <trkpt lat="48.73303" lon="-3.41939">
        <ele>67.43</ele>
        <time>2013-06-10T17:12:37Z</time>
      </trkpt>
      <trkpt lat="48.73311" lon="-3.41948">
        <ele>66.47</ele>
        <time>2013-06-10T17:12:38Z</time>
      </trkpt>
      <trkpt lat="48.7335" lon="-3.41993">
        <ele>63.58</ele>
        <time>2013-06-10T17:12:43Z</time>
      </trkpt>
      <trkpt lat="48.73356" lon="-3.42005">
        <ele>64.07</ele>
        <time>2013-06-10T17:12:44Z</time>
      </trkpt>
      <trkpt lat="48.7336" lon="-3.42019">
        <ele>63.1</ele>
        <time>2013-06-10T17:12:45Z</time>
      </trkpt>
      <trkpt lat="48.73364" lon="-3.42033">
        <ele>62.62</ele>
        <time>2013-06-10T17:12:46Z</time>
      </trkpt>
      <trkpt lat="48.73366" lon="-3.42047">
        <ele>62.62</ele>
        <time>2013-06-10T17:12:47Z</time>
      </trkpt>
      <trkpt lat="48.73367" lon="-3.4206">
        <ele>62.62</ele>
        <time>2013-06-10T17:12:48Z</time>
      </trkpt>
      <trkpt lat="48.73367" lon="-3.42074">
        <ele>63.1</ele>
        <time>2013-06-10T17:12:49Z</time>
      </trkpt>
      <trkpt lat="48.73366" lon="-3.42086">
        <ele>63.1</ele>
        <time>2013-06-10T17:12:50Z</time>
      </trkpt>
      <trkpt lat="48.73365" lon="-3.42098">
        <ele>63.58</ele>
        <time>2013-06-10T17:12:51Z</time>
      </trkpt>
      <trkpt lat="48.73363" lon="-3.42109">
        <ele>63.58</ele>
        <time>2013-06-10T17:12:52Z</time>
      </trkpt>
      <trkpt lat="48.73361" lon="-3.4212">
        <ele>63.58</ele>
        <time>2013-06-10T17:12:53Z</time>
      </trkpt>
      <trkpt lat="48.73358" lon="-3.4213">
        <ele>63.58</ele>
        <time>2013-06-10T17:12:54Z</time>
      </trkpt>
      <trkpt lat="48.73343" lon="-3.42272">
        <ele>66.47</ele>
        <time>2013-06-10T17:13:08Z</time>
      </trkpt>
      <trkpt lat="48.73344" lon="-3.42436">
        <ele>66.95</ele>
        <time>2013-06-10T17:13:24Z</time>
      </trkpt>
      <trkpt lat="48.73358" lon="-3.42644">
        <ele>65.03</ele>
        <time>2013-06-10T17:13:42Z</time>
      </trkpt>
      <trkpt lat="48.73369" lon="-3.42807">
        <ele>65.51</ele>
        <time>2013-06-10T17:13:57Z</time>
      </trkpt>
      <trkpt lat="48.73369" lon="-3.42825">
        <ele>65.99</ele>
        <time>2013-06-10T17:13:59Z</time>
      </trkpt>
      <trkpt lat="48.7337" lon="-3.42834">
        <ele>66.47</ele>
        <time>2013-06-10T17:14:00Z</time>
      </trkpt>
      <trkpt lat="48.73375" lon="-3.42871">
        <ele>66.95</ele>
        <time>2013-06-10T17:14:04Z</time>
      </trkpt>
      <trkpt lat="48.73394" lon="-3.42994">
        <ele>66.95</ele>
        <time>2013-06-10T17:14:17Z</time>
      </trkpt>
      <trkpt lat="48.7339" lon="-3.43144">
        <ele>65.51</ele>
        <time>2013-06-10T17:14:31Z</time>
      </trkpt>
      <trkpt lat="48.73395" lon="-3.43267">
        <ele>62.14</ele>
        <time>2013-06-10T17:14:41Z</time>
      </trkpt>
      <trkpt lat="48.73398" lon="-3.43292">
        <ele>61.18</ele>
        <time>2013-06-10T17:14:43Z</time>
      </trkpt>
      <trkpt lat="48.73402" lon="-3.43317">
        <ele>60.22</ele>
        <time>2013-06-10T17:14:45Z</time>
      </trkpt>
      <trkpt lat="48.73419" lon="-3.43473">
        <ele>56.86</ele>
        <time>2013-06-10T17:14:57Z</time>
      </trkpt>
      <trkpt lat="48.73434" lon="-3.43558">
        <ele>54.93</ele>
        <time>2013-06-10T17:15:04Z</time>
      </trkpt>
      <trkpt lat="48.73438" lon="-3.43569">
        <ele>54.93</ele>
        <time>2013-06-10T17:15:05Z</time>
      </trkpt>
      <trkpt lat="48.73443" lon="-3.43579">
        <ele>54.45</ele>
        <time>2013-06-10T17:15:06Z</time>
      </trkpt>
      <trkpt lat="48.73448" lon="-3.43589">
        <ele>53.97</ele>
        <time>2013-06-10T17:15:07Z</time>
      </trkpt>
      <trkpt lat="48.73454" lon="-3.43598">
        <ele>53.49</ele>
        <time>2013-06-10T17:15:08Z</time>
      </trkpt>
      <trkpt lat="48.7346" lon="-3.43607">
        <ele>53.97</ele>
        <time>2013-06-10T17:15:09Z</time>
      </trkpt>
      <trkpt lat="48.73467" lon="-3.43614">
        <ele>53.49</ele>
        <time>2013-06-10T17:15:10Z</time>
      </trkpt>
      <trkpt lat="48.73475" lon="-3.43619">
        <ele>53.49</ele>
        <time>2013-06-10T17:15:11Z</time>
      </trkpt>
      <trkpt lat="48.73482" lon="-3.43623">
        <ele>53.49</ele>
        <time>2013-06-10T17:15:12Z</time>
      </trkpt>
      <trkpt lat="48.7349" lon="-3.43624">
        <ele>53.01</ele>
        <time>2013-06-10T17:15:13Z</time>
      </trkpt>
      <trkpt lat="48.73498" lon="-3.43626">
        <ele>53.01</ele>
        <time>2013-06-10T17:15:14Z</time>
      </trkpt>
      <trkpt lat="48.73505" lon="-3.43631">
        <ele>53.01</ele>
        <time>2013-06-10T17:15:15Z</time>
      </trkpt>
      <trkpt lat="48.73511" lon="-3.43637">
        <ele>52.05</ele>
        <time>2013-06-10T17:15:16Z</time>
      </trkpt>
      <trkpt lat="48.73527" lon="-3.43655">
        <ele>50.13</ele>
        <time>2013-06-10T17:15:22Z</time>
      </trkpt>
      <trkpt lat="48.73532" lon="-3.43658">
        <ele>50.13</ele>
        <time>2013-06-10T17:15:23Z</time>
      </trkpt>
      <trkpt lat="48.73537" lon="-3.43661">
        <ele>50.13</ele>
        <time>2013-06-10T17:15:24Z</time>
      </trkpt>
      <trkpt lat="48.73542" lon="-3.43667">
        <ele>50.13</ele>
        <time>2013-06-10T17:15:25Z</time>
      </trkpt>
      <trkpt lat="48.73546" lon="-3.43675">
        <ele>50.13</ele>
        <time>2013-06-10T17:15:26Z</time>
      </trkpt>
      <trkpt lat="48.73548" lon="-3.43684">
        <ele>49.65</ele>
        <time>2013-06-10T17:15:27Z</time>
      </trkpt>
      <trkpt lat="48.73549" lon="-3.43695">
        <ele>49.65</ele>
        <time>2013-06-10T17:15:28Z</time>
      </trkpt>
      <trkpt lat="48.73548" lon="-3.43705">
        <ele>49.65</ele>
        <time>2013-06-10T17:15:29Z</time>
      </trkpt>
      <trkpt lat="48.73545" lon="-3.43715">
        <ele>49.16</ele>
        <time>2013-06-10T17:15:30Z</time>
      </trkpt>
      <trkpt lat="48.73541" lon="-3.43723">
        <ele>49.65</ele>
        <time>2013-06-10T17:15:31Z</time>
      </trkpt>
      <trkpt lat="48.73535" lon="-3.4373">
        <ele>49.65</ele>
        <time>2013-06-10T17:15:32Z</time>
      </trkpt>
      <trkpt lat="48.73529" lon="-3.43735">
        <ele>49.16</ele>
        <time>2013-06-10T17:15:33Z</time>
      </trkpt>
      <trkpt lat="48.73523" lon="-3.43739">
        <ele>49.65</ele>
        <time>2013-06-10T17:15:34Z</time>
      </trkpt>
      <trkpt lat="48.73517" lon="-3.43743">
        <ele>49.65</ele>
        <time>2013-06-10T17:15:35Z</time>
      </trkpt>
      <trkpt lat="48.73511" lon="-3.43748">
        <ele>49.65</ele>
        <time>2013-06-10T17:15:36Z</time>
      </trkpt>
      <trkpt lat="48.73505" lon="-3.43753">
        <ele>49.65</ele>
        <time>2013-06-10T17:15:37Z</time>
      </trkpt>
      <trkpt lat="48.735" lon="-3.43761">
        <ele>50.13</ele>
        <time>2013-06-10T17:15:38Z</time>
      </trkpt>
      <trkpt lat="48.73496" lon="-3.4377">
        <ele>50.13</ele>
        <time>2013-06-10T17:15:39Z</time>
      </trkpt>
      <trkpt lat="48.73493" lon="-3.43778">
        <ele>50.13</ele>
        <time>2013-06-10T17:15:40Z</time>
      </trkpt>
      <trkpt lat="48.73445" lon="-3.43902">
        <ele>47.72</ele>
        <time>2013-06-10T17:15:52Z</time>
      </trkpt>
      <trkpt lat="48.73442" lon="-3.43915">
        <ele>47.72</ele>
        <time>2013-06-10T17:15:53Z</time>
      </trkpt>
      <trkpt lat="48.73437" lon="-3.43954">
        <ele>45.8</ele>
        <time>2013-06-10T17:15:56Z</time>
      </trkpt>
      <trkpt lat="48.73431" lon="-3.44006">
        <ele>44.36</ele>
        <time>2013-06-10T17:16:00Z</time>
      </trkpt>
      <trkpt lat="48.73431" lon="-3.44019">
        <ele>43.88</ele>
        <time>2013-06-10T17:16:01Z</time>
      </trkpt>
      <trkpt lat="48.7343" lon="-3.44033">
        <ele>43.4</ele>
        <time>2013-06-10T17:16:02Z</time>
      </trkpt>
      <trkpt lat="48.73427" lon="-3.44046">
        <ele>42.92</ele>
        <time>2013-06-10T17:16:03Z</time>
      </trkpt>
      <trkpt lat="48.73422" lon="-3.44059">
        <ele>42.44</ele>
        <time>2013-06-10T17:16:04Z</time>
      </trkpt>
      <trkpt lat="48.73418" lon="-3.44071">
        <ele>41.95</ele>
        <time>2013-06-10T17:16:05Z</time>
      </trkpt>
      <trkpt lat="48.73415" lon="-3.44083">
        <ele>41.47</ele>
        <time>2013-06-10T17:16:06Z</time>
      </trkpt>
      <trkpt lat="48.73412" lon="-3.44096">
        <ele>41.95</ele>
        <time>2013-06-10T17:16:07Z</time>
      </trkpt>
      <trkpt lat="48.73394" lon="-3.44175">
        <ele>40.03</ele>
        <time>2013-06-10T17:16:13Z</time>
      </trkpt>
      <trkpt lat="48.73393" lon="-3.44188">
        <ele>39.55</ele>
        <time>2013-06-10T17:16:14Z</time>
      </trkpt>
      <trkpt lat="48.73392" lon="-3.44202">
        <ele>39.55</ele>
        <time>2013-06-10T17:16:15Z</time>
      </trkpt>
      <trkpt lat="48.73392" lon="-3.44215">
        <ele>39.55</ele>
        <time>2013-06-10T17:16:16Z</time>
      </trkpt>
      <trkpt lat="48.73392" lon="-3.44228">
        <ele>39.07</ele>
        <time>2013-06-10T17:16:17Z</time>
      </trkpt>
      <trkpt lat="48.73393" lon="-3.4424">
        <ele>39.55</ele>
        <time>2013-06-10T17:16:18Z</time>
      </trkpt>
      <trkpt lat="48.73409" lon="-3.44397">
        <ele>38.59</ele>
        <time>2013-06-10T17:16:32Z</time>
      </trkpt>
      <trkpt lat="48.73411" lon="-3.44406">
        <ele>38.59</ele>
        <time>2013-06-10T17:16:33Z</time>
      </trkpt>
      <trkpt lat="48.73415" lon="-3.44414">
        <ele>38.59</ele>
        <time>2013-06-10T17:16:34Z</time>
      </trkpt>
      <trkpt lat="48.73419" lon="-3.44419">
        <ele>38.59</ele>
        <time>2013-06-10T17:16:35Z</time>
      </trkpt>
      <trkpt lat="48.73425" lon="-3.44421">
        <ele>38.11</ele>
        <time>2013-06-10T17:16:36Z</time>
      </trkpt>
      <trkpt lat="48.73438" lon="-3.44421">
        <ele>37.63</ele>
        <time>2013-06-10T17:16:38Z</time>
      </trkpt>
      <trkpt lat="48.73445" lon="-3.44423">
        <ele>37.63</ele>
        <time>2013-06-10T17:16:39Z</time>
      </trkpt>
      <trkpt lat="48.73458" lon="-3.44427">
        <ele>37.63</ele>
        <time>2013-06-10T17:16:41Z</time>
      </trkpt>
      <trkpt lat="48.73465" lon="-3.44426">
        <ele>37.15</ele>
        <time>2013-06-10T17:16:42Z</time>
      </trkpt>
      <trkpt lat="48.73472" lon="-3.44422">
        <ele>37.15</ele>
        <time>2013-06-10T17:16:43Z</time>
      </trkpt>
      <trkpt lat="48.73479" lon="-3.44418">
        <ele>36.67</ele>
        <time>2013-06-10T17:16:44Z</time>
      </trkpt>
      <trkpt lat="48.73487" lon="-3.44414">
        <ele>37.15</ele>
        <time>2013-06-10T17:16:45Z</time>
      </trkpt>
      <trkpt lat="48.73528" lon="-3.44398">
        <ele>34.74</ele>
        <time>2013-06-10T17:16:50Z</time>
      </trkpt>
      <trkpt lat="48.73564" lon="-3.44392">
        <ele>32.82</ele>
        <time>2013-06-10T17:16:54Z</time>
      </trkpt>
      <trkpt lat="48.7362" lon="-3.44402">
        <ele>29.94</ele>
        <time>2013-06-10T17:17:00Z</time>
      </trkpt>
      <trkpt lat="48.73668" lon="-3.44427">
        <ele>27.05</ele>
        <time>2013-06-10T17:17:05Z</time>
      </trkpt>
      <trkpt lat="48.73728" lon="-3.44477">
        <ele>25.13</ele>
        <time>2013-06-10T17:17:12Z</time>
      </trkpt>
      <trkpt lat="48.73737" lon="-3.44482">
        <ele>25.13</ele>
        <time>2013-06-10T17:17:13Z</time>
      </trkpt>
      <trkpt lat="48.73745" lon="-3.44484">
        <ele>25.61</ele>
        <time>2013-06-10T17:17:14Z</time>
      </trkpt>
      <trkpt lat="48.73752" lon="-3.44484">
        <ele>25.61</ele>
        <time>2013-06-10T17:17:15Z</time>
      </trkpt>
      <trkpt lat="48.7376" lon="-3.44482">
        <ele>25.61</ele>
        <time>2013-06-10T17:17:16Z</time>
      </trkpt>
      <trkpt lat="48.73766" lon="-3.44478">
        <ele>26.09</ele>
        <time>2013-06-10T17:17:17Z</time>
      </trkpt>
      <trkpt lat="48.73771" lon="-3.44473">
        <ele>26.57</ele>
        <time>2013-06-10T17:17:18Z</time>
      </trkpt>
      <trkpt lat="48.73775" lon="-3.44467">
        <ele>27.05</ele>
        <time>2013-06-10T17:17:19Z</time>
      </trkpt>
      <trkpt lat="48.73787" lon="-3.44453">
        <ele>28.02</ele>
        <time>2013-06-10T17:17:22Z</time>
      </trkpt>
      <trkpt lat="48.73791" lon="-3.44449">
        <ele>28.02</ele>
        <time>2013-06-10T17:17:23Z</time>
      </trkpt>
      <trkpt lat="48.73803" lon="-3.4444">
        <ele>28.98</ele>
        <time>2013-06-10T17:17:26Z</time>
      </trkpt>
      <trkpt lat="48.73847" lon="-3.44423">
        <ele>32.34</ele>
        <time>2013-06-10T17:17:36Z</time>
      </trkpt>
      <trkpt lat="48.73852" lon="-3.44423">
        <ele>32.34</ele>
        <time>2013-06-10T17:17:37Z</time>
      </trkpt>
      <trkpt lat="48.73858" lon="-3.44424">
        <ele>32.82</ele>
        <time>2013-06-10T17:17:38Z</time>
      </trkpt>
      <trkpt lat="48.73888" lon="-3.44437">
        <ele>34.74</ele>
        <time>2013-06-10T17:17:44Z</time>
      </trkpt>
      <trkpt lat="48.73918" lon="-3.44448">
        <ele>36.19</ele>
        <time>2013-06-10T17:17:50Z</time>
      </trkpt>
      <trkpt lat="48.73924" lon="-3.4445">
        <ele>36.19</ele>
        <time>2013-06-10T17:17:51Z</time>
      </trkpt>
      <trkpt lat="48.73934" lon="-3.44452">
        <ele>36.67</ele>
        <time>2013-06-10T17:17:53Z</time>
      </trkpt>
      <trkpt lat="48.73943" lon="-3.44453">
        <ele>37.63</ele>
        <time>2013-06-10T17:17:55Z</time>
      </trkpt>
      <trkpt lat="48.73947" lon="-3.44452">
        <ele>37.15</ele>
        <time>2013-06-10T17:17:56Z</time>
      </trkpt>
      <trkpt lat="48.73956" lon="-3.44447">
        <ele>37.63</ele>
        <time>2013-06-10T17:17:58Z</time>
      </trkpt>
      <trkpt lat="48.7396" lon="-3.44445">
        <ele>37.63</ele>
        <time>2013-06-10T17:17:59Z</time>
      </trkpt>
      <trkpt lat="48.73965" lon="-3.44444">
        <ele>38.11</ele>
        <time>2013-06-10T17:18:00Z</time>
      </trkpt>
      <trkpt lat="48.7397" lon="-3.44444">
        <ele>38.11</ele>
        <time>2013-06-10T17:18:01Z</time>
      </trkpt>
      <trkpt lat="48.73974" lon="-3.44445">
        <ele>38.11</ele>
        <time>2013-06-10T17:18:02Z</time>
      </trkpt>
      <trkpt lat="48.73978" lon="-3.44448">
        <ele>38.11</ele>
        <time>2013-06-10T17:18:03Z</time>
      </trkpt>
      <trkpt lat="48.73983" lon="-3.44452">
        <ele>38.59</ele>
        <time>2013-06-10T17:18:04Z</time>
      </trkpt>
      <trkpt lat="48.73986" lon="-3.44456">
        <ele>38.11</ele>
        <time>2013-06-10T17:18:05Z</time>
      </trkpt>
      <trkpt lat="48.7399" lon="-3.44461">
        <ele>38.11</ele>
        <time>2013-06-10T17:18:06Z</time>
      </trkpt>
      <trkpt lat="48.73999" lon="-3.4447">
        <ele>38.11</ele>
        <time>2013-06-10T17:18:08Z</time>
      </trkpt>
      <trkpt lat="48.74004" lon="-3.44474">
        <ele>38.11</ele>
        <time>2013-06-10T17:18:09Z</time>
      </trkpt>
      <trkpt lat="48.74008" lon="-3.44477">
        <ele>38.11</ele>
        <time>2013-06-10T17:18:10Z</time>
      </trkpt>
      <trkpt lat="48.7408" lon="-3.44506">
        <ele>40.03</ele>
        <time>2013-06-10T17:18:25Z</time>
      </trkpt>
      <trkpt lat="48.74134" lon="-3.44537">
        <ele>41.95</ele>
        <time>2013-06-10T17:18:37Z</time>
      </trkpt>
      <trkpt lat="48.74207" lon="-3.44569">
        <ele>43.88</ele>
        <time>2013-06-10T17:18:53Z</time>
      </trkpt>
      <trkpt lat="48.74253" lon="-3.44594">
        <ele>45.8</ele>
        <time>2013-06-10T17:19:04Z</time>
      </trkpt>
      <trkpt lat="48.74257" lon="-3.44597">
        <ele>45.8</ele>
        <time>2013-06-10T17:19:05Z</time>
      </trkpt>
      <trkpt lat="48.7426" lon="-3.44602">
        <ele>45.8</ele>
        <time>2013-06-10T17:19:06Z</time>
      </trkpt>
      <trkpt lat="48.74263" lon="-3.44608">
        <ele>45.8</ele>
        <time>2013-06-10T17:19:07Z</time>
      </trkpt>
      <trkpt lat="48.74265" lon="-3.44615">
        <ele>46.28</ele>
        <time>2013-06-10T17:19:08Z</time>
      </trkpt>
      <trkpt lat="48.74265" lon="-3.44623">
        <ele>45.8</ele>
        <time>2013-06-10T17:19:09Z</time>
      </trkpt>
      <trkpt lat="48.74265" lon="-3.4463">
        <ele>45.8</ele>
        <time>2013-06-10T17:19:10Z</time>
      </trkpt>
      <trkpt lat="48.74265" lon="-3.44638">
        <ele>46.28</ele>
        <time>2013-06-10T17:19:11Z</time>
      </trkpt>
      <trkpt lat="48.74266" lon="-3.44645">
        <ele>46.28</ele>
        <time>2013-06-10T17:19:12Z</time>
      </trkpt>
      <trkpt lat="48.74267" lon="-3.44652">
        <ele>46.76</ele>
        <time>2013-06-10T17:19:13Z</time>
      </trkpt>
      <trkpt lat="48.74276" lon="-3.44744">
        <ele>49.65</ele>
        <time>2013-06-10T17:19:27Z</time>
      </trkpt>
      <trkpt lat="48.74278" lon="-3.44819">
        <ele>52.05</ele>
        <time>2013-06-10T17:19:38Z</time>
      </trkpt>
      <trkpt lat="48.74278" lon="-3.4484">
        <ele>53.01</ele>
        <time>2013-06-10T17:19:41Z</time>
      </trkpt>
      <trkpt lat="48.74278" lon="-3.44862">
        <ele>53.49</ele>
        <time>2013-06-10T17:19:44Z</time>
      </trkpt>
      <trkpt lat="48.74278" lon="-3.44877">
        <ele>53.97</ele>
        <time>2013-06-10T17:19:46Z</time>
      </trkpt>
      <trkpt lat="48.74277" lon="-3.44884">
        <ele>53.97</ele>
        <time>2013-06-10T17:19:47Z</time>
      </trkpt>
      <trkpt lat="48.74277" lon="-3.44892">
        <ele>54.45</ele>
        <time>2013-06-10T17:19:48Z</time>
      </trkpt>
      <trkpt lat="48.74277" lon="-3.4495">
        <ele>56.37</ele>
        <time>2013-06-10T17:19:56Z</time>
      </trkpt>
      <trkpt lat="48.74276" lon="-3.45051">
        <ele>59.74</ele>
        <time>2013-06-10T17:20:10Z</time>
      </trkpt>
      <trkpt lat="48.74276" lon="-3.45058">
        <ele>60.22</ele>
        <time>2013-06-10T17:20:11Z</time>
      </trkpt>
      <trkpt lat="48.74276" lon="-3.45065">
        <ele>60.22</ele>
        <time>2013-06-10T17:20:12Z</time>
      </trkpt>
      <trkpt lat="48.74275" lon="-3.45072">
        <ele>60.7</ele>
        <time>2013-06-10T17:20:13Z</time>
      </trkpt>
      <trkpt lat="48.74276" lon="-3.45079">
        <ele>60.7</ele>
        <time>2013-06-10T17:20:14Z</time>
      </trkpt>
      <trkpt lat="48.74277" lon="-3.45086">
        <ele>61.18</ele>
        <time>2013-06-10T17:20:15Z</time>
      </trkpt>
      <trkpt lat="48.74278" lon="-3.45093">
        <ele>61.66</ele>
        <time>2013-06-10T17:20:16Z</time>
      </trkpt>
      <trkpt lat="48.74279" lon="-3.45099">
        <ele>61.66</ele>
        <time>2013-06-10T17:20:17Z</time>
      </trkpt>
      <trkpt lat="48.74281" lon="-3.45106">
        <ele>62.14</ele>
        <time>2013-06-10T17:20:18Z</time>
      </trkpt>
      <trkpt lat="48.74291" lon="-3.45138">
        <ele>63.58</ele>
        <time>2013-06-10T17:20:23Z</time>
      </trkpt>
      <trkpt lat="48.74294" lon="-3.45144">
        <ele>64.07</ele>
        <time>2013-06-10T17:20:24Z</time>
      </trkpt>
      <trkpt lat="48.74297" lon="-3.4515">
        <ele>64.55</ele>
        <time>2013-06-10T17:20:25Z</time>
      </trkpt>
      <trkpt lat="48.74305" lon="-3.45166">
        <ele>65.03</ele>
        <time>2013-06-10T17:20:28Z</time>
      </trkpt>
      <trkpt lat="48.7432" lon="-3.45186">
        <ele>66.47</ele>
        <time>2013-06-10T17:20:32Z</time>
      </trkpt>
      <trkpt lat="48.74324" lon="-3.4519">
        <ele>66.47</ele>
        <time>2013-06-10T17:20:33Z</time>
      </trkpt>
      <trkpt lat="48.74328" lon="-3.45193">
        <ele>66.47</ele>
        <time>2013-06-10T17:20:34Z</time>
      </trkpt>
      <trkpt lat="48.74332" lon="-3.45196">
        <ele>66.95</ele>
        <time>2013-06-10T17:20:35Z</time>
      </trkpt>
      <trkpt lat="48.74335" lon="-3.45199">
        <ele>67.43</ele>
        <time>2013-06-10T17:20:36Z</time>
      </trkpt>
      <trkpt lat="48.74393" lon="-3.45228">
        <ele>69.83</ele>
        <time>2013-06-10T17:20:50Z</time>
      </trkpt>
      <trkpt lat="48.74397" lon="-3.4523">
        <ele>69.83</ele>
        <time>2013-06-10T17:20:51Z</time>
      </trkpt>
      <trkpt lat="48.74401" lon="-3.45233">
        <ele>69.83</ele>
        <time>2013-06-10T17:20:52Z</time>
      </trkpt>
      <trkpt lat="48.74451" lon="-3.45294">
        <ele>67.43</ele>
        <time>2013-06-10T17:21:04Z</time>
      </trkpt>
      <trkpt lat="48.74488" lon="-3.45341">
        <ele>64.07</ele>
        <time>2013-06-10T17:21:10Z</time>
      </trkpt>
      <trkpt lat="48.74524" lon="-3.45392">
        <ele>60.7</ele>
        <time>2013-06-10T17:21:15Z</time>
      </trkpt>
      <trkpt lat="48.74537" lon="-3.45415">
        <ele>59.74</ele>
        <time>2013-06-10T17:21:17Z</time>
      </trkpt>
      <trkpt lat="48.74574" lon="-3.45485">
        <ele>61.18</ele>
        <time>2013-06-10T17:21:25Z</time>
      </trkpt>
      <trkpt lat="48.74597" lon="-3.45509">
        <ele>63.58</ele>
        <time>2013-06-10T17:21:32Z</time>
      </trkpt>
      <trkpt lat="48.74601" lon="-3.45509">
        <ele>63.58</ele>
        <time>2013-06-10T17:21:33Z</time>
      </trkpt>
      <trkpt lat="48.74605" lon="-3.45507">
        <ele>63.58</ele>
        <time>2013-06-10T17:21:34Z</time>
      </trkpt>
      <trkpt lat="48.74607" lon="-3.45502">
        <ele>64.07</ele>
        <time>2013-06-10T17:21:35Z</time>
      </trkpt>
      <trkpt lat="48.74609" lon="-3.45496">
        <ele>64.55</ele>
        <time>2013-06-10T17:21:36Z</time>
      </trkpt>
      <trkpt lat="48.74611" lon="-3.45491">
        <ele>65.03</ele>
        <time>2013-06-10T17:21:37Z</time>
      </trkpt>
      <trkpt lat="48.74616" lon="-3.45475">
        <ele>65.99</ele>
        <time>2013-06-10T17:21:40Z</time>
      </trkpt>
      <trkpt lat="48.74622" lon="-3.45467">
        <ele>66.95</ele>
        <time>2013-06-10T17:21:42Z</time>
      </trkpt>
      <trkpt lat="48.74626" lon="-3.45466">
        <ele>66.95</ele>
        <time>2013-06-10T17:21:43Z</time>
      </trkpt>
      <trkpt lat="48.7463" lon="-3.45468">
        <ele>67.43</ele>
        <time>2013-06-10T17:21:44Z</time>
      </trkpt>
      <trkpt lat="48.74633" lon="-3.4547">
        <ele>67.43</ele>
        <time>2013-06-10T17:21:45Z</time>
      </trkpt>
      <trkpt lat="48.74636" lon="-3.45471">
        <ele>67.91</ele>
        <time>2013-06-10T17:21:46Z</time>
      </trkpt>
      <trkpt lat="48.74639" lon="-3.45472">
        <ele>67.91</ele>
        <time>2013-06-10T17:21:47Z</time>
      </trkpt>
      <trkpt lat="48.74652" lon="-3.45489">
        <ele>69.35</ele>
        <time>2013-06-10T17:21:56Z</time>
      </trkpt>
      <trkpt lat="48.74655" lon="-3.45502">
        <ele>70.79</ele>
        <time>2013-06-10T17:22:02Z</time>
      </trkpt>
      <trkpt lat="48.74682" lon="-3.45517">
        <ele>71.76</ele>
        <time>2013-06-10T17:22:13Z</time>
      </trkpt>
      <trkpt lat="48.74684" lon="-3.45516">
        <ele>71.76</ele>
        <time>2013-06-10T17:22:14Z</time>
      </trkpt>
      <trkpt lat="48.74686" lon="-3.45515">
        <ele>71.76</ele>
        <time>2013-06-10T17:22:15Z</time>
      </trkpt>
      <trkpt lat="48.74693" lon="-3.45506">
        <ele>72.24</ele>
        <time>2013-06-10T17:22:19Z</time>
      </trkpt>
      <trkpt lat="48.74694" lon="-3.45503">
        <ele>72.24</ele>
        <time>2013-06-10T17:22:20Z</time>
      </trkpt>
      <trkpt lat="48.74693" lon="-3.45501">
        <ele>72.24</ele>
        <time>2013-06-10T17:22:21Z</time>
      </trkpt>
      <trkpt lat="48.74695" lon="-3.455">
        <ele>72.24</ele>
        <time>2013-06-10T17:22:32Z</time>
      </trkpt>
      <trkpt lat="48.74693" lon="-3.45497">
        <ele>72.24</ele>
        <time>2013-06-10T17:22:54Z</time>
      </trkpt>
      <trkpt lat="48.74691" lon="-3.45495">
        <ele>72.24</ele>
        <time>2013-06-10T17:23:14Z</time>
      </trkpt>
      <trkpt lat="48.74687" lon="-3.45499">
        <ele>72.24</ele>
        <time>2013-06-10T17:23:27Z</time>
      </trkpt>
      <trkpt lat="48.74686" lon="-3.45499">
        <ele>72.72</ele>
        <time>2013-06-10T17:23:28Z</time>
      </trkpt>
      <trkpt lat="48.74685" lon="-3.45501">
        <ele>72.72</ele>
        <time>2013-06-10T17:23:29Z</time>
      </trkpt>
      <trkpt lat="48.74684" lon="-3.45502">
        <ele>72.72</ele>
        <time>2013-06-10T17:23:30Z</time>
      </trkpt>
      <trkpt lat="48.74684" lon="-3.45503">
        <ele>73.2</ele>
        <time>2013-06-10T17:23:31Z</time>
      </trkpt>
      <trkpt lat="48.74683" lon="-3.45505">
        <ele>72.72</ele>
        <time>2013-06-10T17:23:32Z</time>
      </trkpt>
      <trkpt lat="48.74683" lon="-3.45506">
        <ele>72.24</ele>
        <time>2013-06-10T17:23:33Z</time>
      </trkpt>
      <trkpt lat="48.74682" lon="-3.45509">
        <ele>72.72</ele>
        <time>2013-06-10T17:23:34Z</time>
      </trkpt>
    </trkseg>
  </trk>
</gpx>